AVA6Z SKBO-GOBD
Flight info
| Callsign | AVA6Z |
|---|---|
| Flight time | 7h 57m |
| Altitude | 39000 |
| Route | DANSA4R/14R AKROB MAVDA UW20 AUC DCT MIQ UN669 ELJEZ/M083F390 DCT 2150N DCT 2340N DCT 22N036W DCT ERNEK/N0478F390 DCT EVKAS DCT BVT DCT MOGSA DCT PIVSA |
| Aircraft | A359/H-SDE2E3GHIJ3J4J5LM1ORWXY/LB1D1 |
Departure
| Time | 2026-04-25 14:20 |
|---|---|
| Airport | El Dorado International Airport (SKBO) |
Arrival
| Time | 2026-04-25 22:17 |
|---|---|
| Airport | Blaise Diagne International Airport (GOBD) |
| Time | Latitude | Longitude | Altitude | Speed | Heading |
|---|---|---|---|---|---|
| 2026-04-25 13:21 | 4.69578 | -74.13565 | 8373 ft | 0 kts | 217° |
| 2026-04-25 13:53 | 4.69585 | -74.13560 | 8372 ft | 3 kts | 217° |
| 2026-04-25 13:54 | 4.69601 | -74.13548 | 8372 ft | 3 kts | 217° |
| 2026-04-25 13:54 | 4.69615 | -74.13538 | 8372 ft | 2 kts | 217° |
| 2026-04-25 13:54 | 4.69627 | -74.13527 | 8372 ft | 3 kts | 246° |
| 2026-04-25 13:54 | 4.69630 | -74.13513 | 8372 ft | 3 kts | 295° |
| 2026-04-25 13:55 | 4.69619 | -74.13496 | 8372 ft | 3 kts | 310° |
| 2026-04-25 13:55 | 4.69613 | -74.13490 | 8372 ft | 0 kts | 308° |
| 2026-04-25 13:59 | 4.69614 | -74.13490 | 8372 ft | 0 kts | 308° |
| 2026-04-25 14:00 | 4.69630 | -74.13511 | 8372 ft | 12 kts | 307° |
| 2026-04-25 14:00 | 4.69687 | -74.13585 | 8372 ft | 14 kts | 307° |
| 2026-04-25 14:00 | 4.69747 | -74.13664 | 8372 ft | 9 kts | 307° |
| 2026-04-25 14:00 | 4.69750 | -74.13668 | 8372 ft | 1 kts | 307° |
| 2026-04-25 14:01 | 4.69770 | -74.13694 | 8372 ft | 11 kts | 306° |
| 2026-04-25 14:01 | 4.69833 | -74.13779 | 8372 ft | 17 kts | 307° |
| 2026-04-25 14:01 | 4.69881 | -74.13844 | 8372 ft | 0 kts | 307° |
| 2026-04-25 14:01 | 4.69890 | -74.13854 | 8372 ft | 7 kts | 314° |
| 2026-04-25 14:02 | 4.69940 | -74.13865 | 8372 ft | 9 kts | 8° |
| 2026-04-25 14:02 | 4.70008 | -74.13897 | 8372 ft | 14 kts | 315° |
| 2026-04-25 14:02 | 4.70048 | -74.13946 | 8372 ft | 0 kts | 308° |
| 2026-04-25 14:03 | 4.70054 | -74.13953 | 8372 ft | 0 kts | 308° |
| 2026-04-25 14:04 | 4.70056 | -74.13955 | 8372 ft | 4 kts | 308° |
| 2026-04-25 14:04 | 4.70109 | -74.14022 | 8372 ft | 20 kts | 308° |
| 2026-04-25 14:04 | 4.70220 | -74.14170 | 8372 ft | 32 kts | 306° |
| 2026-04-25 14:04 | 4.70366 | -74.14366 | 8373 ft | 34 kts | 307° |
| 2026-04-25 14:05 | 4.70401 | -74.14422 | 8373 ft | 2 kts | 298° |
| 2026-04-25 14:05 | 4.70415 | -74.14442 | 8373 ft | 4 kts | 306° |
| 2026-04-25 14:05 | 4.70427 | -74.14470 | 8373 ft | 4 kts | 280° |
| 2026-04-25 14:05 | 4.70418 | -74.14500 | 8372 ft | 0 kts | 238° |
| 2026-04-25 14:06 | 4.70416 | -74.14502 | 8372 ft | 3 kts | 236° |
| 2026-04-25 14:06 | 4.70379 | -74.14537 | 8373 ft | 12 kts | 219° |
| 2026-04-25 14:06 | 4.70286 | -74.14612 | 8373 ft | 22 kts | 216° |
| 2026-04-25 14:06 | 4.70235 | -74.14648 | 8372 ft | 2 kts | 216° |
| 2026-04-25 14:07 | 4.70228 | -74.14654 | 8372 ft | 0 kts | 217° |
| 2026-04-25 14:08 | 4.70227 | -74.14654 | 8372 ft | 2 kts | 217° |
| 2026-04-25 14:08 | 4.70178 | -74.14691 | 8373 ft | 15 kts | 217° |
| 2026-04-25 14:08 | 4.70060 | -74.14778 | 8372 ft | 27 kts | 217° |
| 2026-04-25 14:09 | 4.69926 | -74.14880 | 8373 ft | 12 kts | 217° |
| 2026-04-25 14:09 | 4.69858 | -74.14946 | 8372 ft | 15 kts | 248° |
| 2026-04-25 14:09 | 4.69882 | -74.15038 | 8372 ft | 14 kts | 309° |
| 2026-04-25 14:09 | 4.69939 | -74.15092 | 8372 ft | 20 kts | 317° |
| 2026-04-25 14:10 | 4.70080 | -74.15276 | 8372 ft | 31 kts | 306° |
| 2026-04-25 14:10 | 4.70225 | -74.15466 | 8372 ft | 37 kts | 308° |
| 2026-04-25 14:10 | 4.70393 | -74.15687 | 8372 ft | 43 kts | 307° |
| 2026-04-25 14:10 | 4.70588 | -74.15944 | 8372 ft | 49 kts | 307° |
| 2026-04-25 14:11 | 4.70759 | -74.16168 | 8372 ft | 39 kts | 307° |
| 2026-04-25 14:11 | 4.70927 | -74.16392 | 8372 ft | 41 kts | 307° |
| 2026-04-25 14:11 | 4.71097 | -74.16616 | 8372 ft | 31 kts | 307° |
| 2026-04-25 14:11 | 4.71181 | -74.16727 | 8372 ft | 0 kts | 307° |
| 2026-04-25 14:12 | 4.71185 | -74.16733 | 8372 ft | 0 kts | 305° |
| 2026-04-25 14:14 | 4.71191 | -74.16743 | 8372 ft | 5 kts | 299° |
| 2026-04-25 14:14 | 4.71191 | -74.16788 | 8372 ft | 8 kts | 246° |
| 2026-04-25 14:14 | 4.71152 | -74.16828 | 8371 ft | 0 kts | 221° |
| 2026-04-25 14:17 | 4.71117 | -74.16855 | 8370 ft | 13 kts | 216° |
| 2026-04-25 14:17 | 4.71013 | -74.16857 | 8369 ft | 15 kts | 138° |
| 2026-04-25 14:17 | 4.70999 | -74.16842 | 8370 ft | 6 kts | 131° |
| 2026-04-25 14:17 | 4.70990 | -74.16832 | 8370 ft | 0 kts | 130° |
| 2026-04-25 14:18 | 4.70920 | -74.16743 | 8370 ft | 38 kts | 128° |
| 2026-04-25 14:18 | 4.70675 | -74.16420 | 8372 ft | 77 kts | 128° |
| 2026-04-25 14:19 | 4.70277 | -74.15893 | 8370 ft | 112 kts | 127° |
| 2026-04-25 14:19 | 4.69736 | -74.15178 | 8372 ft | 147 kts | 127° |
| 2026-04-25 14:19 | 4.69077 | -74.14261 | 8373 ft | 172 kts | 123° |
| 2026-04-25 14:19 | 4.68394 | -74.13233 | 8667 ft | 178 kts | 120° |
| 2026-04-25 14:20 | 4.67402 | -74.11229 | 9137 ft | 422 kts | 106° |
| 2026-04-25 14:20 | 4.67156 | -74.10305 | 9217 ft | 412 kts | 99° |
| 2026-04-25 14:20 | 4.69578 | -74.13565 | 8490 ft | 0 kts | 217° |
| 2026-04-25 14:30 | 4.69581 | -74.13564 | 8372 ft | 1 kts | 217° |
| 2026-04-25 14:30 | 4.69593 | -74.13554 | 8373 ft | 0 kts | 217° |
| 2026-04-25 14:30 | 4.69594 | -74.13554 | 8373 ft | 1 kts | 217° |
| 2026-04-25 14:31 | 4.69607 | -74.13544 | 8372 ft | 3 kts | 217° |
| 2026-04-25 14:31 | 4.69622 | -74.13532 | 8373 ft | 3 kts | 237° |
| 2026-04-25 14:31 | 4.69629 | -74.13514 | 8373 ft | 3 kts | 278° |
| 2026-04-25 14:31 | 4.69625 | -74.13499 | 8373 ft | 0 kts | 306° |
| 2026-04-25 14:35 | 4.69626 | -74.13500 | 8373 ft | 4 kts | 306° |
| 2026-04-25 14:36 | 4.69705 | -74.13608 | 8372 ft | 21 kts | 306° |
| 2026-04-25 14:36 | 4.69755 | -74.13677 | 8373 ft | 20 kts | 307° |
| 2026-04-25 14:36 | 4.69890 | -74.13853 | 8372 ft | 35 kts | 307° |
| 2026-04-25 14:36 | 4.69999 | -74.13997 | 8372 ft | 22 kts | 312° |
| 2026-04-25 14:37 | 4.70032 | -74.14019 | 8372 ft | 5 kts | 343° |
| 2026-04-25 14:37 | 4.70115 | -74.14019 | 8372 ft | 17 kts | 347° |
| 2026-04-25 14:37 | 4.69964 | -74.13753 | 8373 ft | 387 kts | 313° |
| 2026-04-25 14:37 | 4.70207 | -74.14152 | 8372 ft | 0 kts | 307° |
| 2026-04-25 14:38 | 4.70240 | -74.14195 | 8372 ft | 18 kts | 308° |
| 2026-04-25 14:38 | 4.70323 | -74.14304 | 8373 ft | 25 kts | 306° |
| 2026-04-25 14:38 | 4.70429 | -74.14452 | 8373 ft | 8 kts | 292° |
| 2026-04-25 14:38 | 4.70431 | -74.14480 | 8373 ft | 11 kts | 264° |
| 2026-04-25 14:39 | 4.70375 | -74.14567 | 8373 ft | 13 kts | 218° |
| 2026-04-25 14:39 | 4.70237 | -74.14649 | 8373 ft | 33 kts | 214° |
| 2026-04-25 14:39 | 4.70028 | -74.14803 | 8373 ft | 40 kts | 217° |
| 2026-04-25 14:39 | 4.69891 | -74.14907 | 8373 ft | 16 kts | 217° |
| 2026-04-25 14:40 | 4.69856 | -74.14966 | 8372 ft | 0 kts | 265° |
| 2026-04-25 14:40 | 4.69867 | -74.14987 | 8372 ft | 9 kts | 298° |
| 2026-04-25 14:40 | 4.69931 | -74.15077 | 8372 ft | 23 kts | 307° |
| 2026-04-25 14:40 | 4.70053 | -74.15238 | 8373 ft | 36 kts | 307° |
| 2026-04-25 14:41 | 4.70226 | -74.15467 | 8372 ft | 42 kts | 308° |
| 2026-04-25 14:41 | 4.70346 | -74.15626 | 8372 ft | 7 kts | 308° |
| 2026-04-25 14:41 | 4.70424 | -74.15726 | 8372 ft | 31 kts | 307° |
| 2026-04-25 14:41 | 4.70600 | -74.15960 | 8372 ft | 53 kts | 307° |
| 2026-04-25 14:42 | 4.70839 | -74.16276 | 8373 ft | 59 kts | 306° |
| 2026-04-25 14:42 | 4.70942 | -74.16413 | 8373 ft | 12 kts | 307° |
| 2026-04-25 14:42 | 4.70966 | -74.16446 | 8372 ft | 11 kts | 307° |
| 2026-04-25 14:42 | 4.71034 | -74.16537 | 8372 ft | 22 kts | 307° |
| 2026-04-25 14:43 | 4.71114 | -74.16639 | 8372 ft | 1 kts | 308° |
| 2026-04-25 14:43 | 4.71128 | -74.16658 | 8372 ft | 7 kts | 307° |
| 2026-04-25 14:43 | 4.71130 | -74.16661 | 8372 ft | 0 kts | 307° |
| 2026-04-25 14:44 | 4.71135 | -74.16666 | 8372 ft | 5 kts | 307° |
| 2026-04-25 14:44 | 4.71181 | -74.16727 | 8372 ft | 15 kts | 304° |
| 2026-04-25 14:44 | 4.71195 | -74.16764 | 8372 ft | 2 kts | 275° |
| 2026-04-25 14:45 | 4.71175 | -74.16806 | 8372 ft | 12 kts | 230° |
| 2026-04-25 14:45 | 4.71160 | -74.16820 | 8371 ft | 0 kts | 224° |
| 2026-04-25 14:45 | 4.71159 | -74.16821 | 8371 ft | 0 kts | 224° |
| 2026-04-25 14:46 | 4.71112 | -74.16861 | 8370 ft | 15 kts | 217° |
| 2026-04-25 14:46 | 4.71028 | -74.16868 | 8369 ft | 9 kts | 154° |
| 2026-04-25 14:46 | 4.70993 | -74.16833 | 8370 ft | 0 kts | 130° |
| 2026-04-25 14:47 | 4.70990 | -74.16829 | 8370 ft | 4 kts | 131° |
| 2026-04-25 14:47 | 4.70982 | -74.16820 | 8370 ft | 0 kts | 130° |
| 2026-04-25 14:47 | 4.70980 | -74.16818 | 8370 ft | 6 kts | 130° |
| 2026-04-25 14:47 | 4.70823 | -74.16615 | 8370 ft | 67 kts | 126° |
| 2026-04-25 14:48 | 4.70427 | -74.16092 | 8371 ft | 121 kts | 126° |
| 2026-04-25 14:48 | 4.69818 | -74.15288 | 8372 ft | 168 kts | 126° |
| 2026-04-25 14:48 | 4.69071 | -74.14267 | 8848 ft | 177 kts | 126° |
| 2026-04-25 14:48 | 4.68180 | -74.13296 | 9073 ft | 200 kts | 147° |
| 2026-04-25 14:49 | 4.66831 | -74.13082 | 9576 ft | 202 kts | 194° |
| 2026-04-25 14:49 | 4.65666 | -74.13870 | 9786 ft | 217 kts | 236° |
| 2026-04-25 14:49 | 4.65137 | -74.15334 | 10157 ft | 230 kts | 258° |
| 2026-04-25 14:49 | 4.64519 | -74.16834 | 10733 ft | 236 kts | 240° |
| 2026-04-25 14:50 | 4.63602 | -74.18219 | 11353 ft | 240 kts | 233° |
| 2026-04-25 14:50 | 4.62507 | -74.19541 | 11861 ft | 253 kts | 228° |
| 2026-04-25 14:50 | 4.61520 | -74.21018 | 12472 ft | 258 kts | 249° |
| 2026-04-25 14:50 | 4.61038 | -74.22810 | 12898 ft | 275 kts | 259° |
| 2026-04-25 14:51 | 4.60702 | -74.24744 | 13179 ft | 295 kts | 260° |
| 2026-04-25 14:51 | 4.60256 | -74.26783 | 13678 ft | 304 kts | 249° |
| 2026-04-25 14:51 | 4.59111 | -74.28574 | 14281 ft | 308 kts | 228° |
| 2026-04-25 14:51 | 4.57625 | -74.30142 | 14856 ft | 312 kts | 225° |
| 2026-04-25 14:52 | 4.56090 | -74.31699 | 15444 ft | 315 kts | 225° |
| 2026-04-25 14:52 | 4.54545 | -74.33271 | 16056 ft | 318 kts | 226° |
| 2026-04-25 14:52 | 4.52881 | -74.34740 | 16593 ft | 322 kts | 216° |
| 2026-04-25 14:52 | 4.51622 | -74.35572 | 16792 ft | 331 kts | 212° |
| 2026-04-25 14:53 | 4.48891 | -74.37196 | 17071 ft | 352 kts | 211° |
| 2026-04-25 14:53 | 4.46734 | -74.38465 | 17304 ft | 366 kts | 211° |
| 2026-04-25 14:53 | 4.44494 | -74.39792 | 17528 ft | 381 kts | 211° |
| 2026-04-25 14:53 | 4.42188 | -74.41161 | 17723 ft | 388 kts | 211° |
| 2026-04-25 14:54 | 4.39843 | -74.42557 | 17886 ft | 395 kts | 211° |
| 2026-04-25 14:54 | 4.37464 | -74.43975 | 18063 ft | 401 kts | 211° |
| 2026-04-25 14:54 | 4.35055 | -74.45411 | 18331 ft | 404 kts | 211° |
| 2026-04-25 14:54 | 4.32589 | -74.46785 | 18580 ft | 407 kts | 205° |
| 2026-04-25 14:55 | 4.29893 | -74.47663 | 18816 ft | 410 kts | 191° |
| 2026-04-25 14:55 | 4.27048 | -74.47790 | 19079 ft | 412 kts | 175° |
| 2026-04-25 14:55 | 4.24288 | -74.47149 | 19332 ft | 415 kts | 159° |
| 2026-04-25 14:55 | 4.21755 | -74.45754 | 19583 ft | 418 kts | 143° |
| 2026-04-25 14:56 | 4.19667 | -74.43698 | 19693 ft | 424 kts | 127° |
| 2026-04-25 14:56 | 4.18219 | -74.41107 | 19787 ft | 430 kts | 110° |
| 2026-04-25 14:56 | 4.17545 | -74.38185 | 19901 ft | 435 kts | 94° |
| 2026-04-25 14:56 | 4.17721 | -74.35152 | 20022 ft | 439 kts | 77° |
| 2026-04-25 14:57 | 4.18631 | -74.32219 | 20122 ft | 443 kts | 69° |
| 2026-04-25 14:57 | 4.19733 | -74.29328 | 20238 ft | 447 kts | 68° |
| 2026-04-25 14:57 | 4.20845 | -74.26435 | 20341 ft | 452 kts | 68° |
| 2026-04-25 14:57 | 4.21985 | -74.23435 | 20439 ft | 456 kts | 69° |
| 2026-04-25 14:58 | 4.22832 | -74.20400 | 20538 ft | 461 kts | 81° |
| 2026-04-25 14:58 | 4.22874 | -74.17195 | 20712 ft | 463 kts | 96° |
| 2026-04-25 14:58 | 4.22397 | -74.13991 | 20890 ft | 465 kts | 99° |
| 2026-04-25 14:58 | 4.21844 | -74.10790 | 21105 ft | 466 kts | 99° |
| 2026-04-25 14:59 | 4.21332 | -74.07582 | 21295 ft | 467 kts | 96° |
| 2026-04-25 14:59 | 4.21235 | -74.04333 | 21438 ft | 468 kts | 85° |
| 2026-04-25 14:59 | 4.21815 | -74.01128 | 21671 ft | 466 kts | 71° |
| 2026-04-25 14:59 | 4.23156 | -73.98225 | 22300 ft | 455 kts | 57° |
| 2026-04-25 15:00 | 4.24949 | -73.95664 | 23005 ft | 443 kts | 51° |
| 2026-04-25 15:00 | 4.26883 | -73.93301 | 23534 ft | 436 kts | 49° |
| 2026-04-25 15:00 | 4.28876 | -73.91047 | 23800 ft | 436 kts | 47° |
| 2026-04-25 15:00 | 4.30948 | -73.88773 | 24026 ft | 437 kts | 47° |
| 2026-04-25 15:01 | 4.32982 | -73.86548 | 24182 ft | 438 kts | 47° |
| 2026-04-25 15:01 | 4.35061 | -73.84251 | 24376 ft | 439 kts | 48° |
| 2026-04-25 15:01 | 4.37079 | -73.81996 | 24545 ft | 440 kts | 48° |
| 2026-04-25 15:01 | 4.39119 | -73.79696 | 24725 ft | 441 kts | 49° |
| 2026-04-25 15:02 | 4.41153 | -73.77389 | 24892 ft | 443 kts | 49° |
| 2026-04-25 15:02 | 4.43197 | -73.75063 | 25043 ft | 444 kts | 49° |
| 2026-04-25 15:02 | 4.44550 | -73.73522 | 25161 ft | 445 kts | 49° |
| 2026-04-25 15:02 | 4.46600 | -73.71187 | 25334 ft | 446 kts | 49° |
| 2026-04-25 15:03 | 4.48695 | -73.68801 | 25505 ft | 447 kts | 49° |
| 2026-04-25 15:03 | 4.50700 | -73.66520 | 25660 ft | 448 kts | 49° |
| 2026-04-25 15:03 | 4.52761 | -73.64174 | 25817 ft | 449 kts | 49° |
| 2026-04-25 15:03 | 4.54832 | -73.61818 | 25978 ft | 451 kts | 49° |
| 2026-04-25 15:04 | 4.56911 | -73.59454 | 26151 ft | 452 kts | 49° |
| 2026-04-25 15:04 | 4.58995 | -73.57083 | 26313 ft | 453 kts | 49° |
| 2026-04-25 15:04 | 4.61089 | -73.54700 | 26486 ft | 455 kts | 49° |
| 2026-04-25 15:04 | 4.63186 | -73.52314 | 26644 ft | 456 kts | 49° |
| 2026-04-25 15:05 | 4.65282 | -73.49928 | 26779 ft | 457 kts | 49° |
| 2026-04-25 15:05 | 4.67359 | -73.47564 | 26937 ft | 457 kts | 50° |
| 2026-04-25 15:05 | 4.69490 | -73.45139 | 27110 ft | 459 kts | 50° |
| 2026-04-25 15:06 | 4.73689 | -73.40358 | 27400 ft | 461 kts | 50° |
| 2026-04-25 15:06 | 4.75807 | -73.37946 | 27563 ft | 462 kts | 50° |
| 2026-04-25 15:06 | 4.77936 | -73.35521 | 27651 ft | 464 kts | 50° |
| 2026-04-25 15:06 | 4.80074 | -73.33087 | 27825 ft | 465 kts | 50° |
| 2026-04-25 15:07 | 4.82218 | -73.30644 | 27989 ft | 466 kts | 50° |
| 2026-04-25 15:07 | 4.84366 | -73.28198 | 28168 ft | 467 kts | 50° |
| 2026-04-25 15:07 | 4.86516 | -73.25747 | 28327 ft | 468 kts | 50° |
| 2026-04-25 15:07 | 4.88452 | -73.23541 | 28475 ft | 469 kts | 50° |
| 2026-04-25 15:08 | 4.90616 | -73.21074 | 28621 ft | 471 kts | 50° |
| 2026-04-25 15:08 | 4.92779 | -73.18607 | 28770 ft | 472 kts | 50° |
| 2026-04-25 15:08 | 4.94925 | -73.16161 | 28892 ft | 474 kts | 50° |
| 2026-04-25 15:09 | 4.99299 | -73.11175 | 29027 ft | 479 kts | 50° |
| 2026-04-25 15:09 | 5.05967 | -73.03570 | 29194 ft | 487 kts | 50° |
| 2026-04-25 15:10 | 5.10474 | -72.98431 | 29350 ft | 492 kts | 50° |
| 2026-04-25 15:11 | 5.16230 | -72.91866 | 29435 ft | 499 kts | 50° |
| 2026-04-25 15:11 | 5.20831 | -72.86615 | 29531 ft | 503 kts | 50° |
| 2026-04-25 15:12 | 5.25445 | -72.81349 | 29690 ft | 507 kts | 50° |
| 2026-04-25 15:12 | 5.27765 | -72.78700 | 30033 ft | 501 kts | 50° |
| 2026-04-25 15:12 | 5.30044 | -72.76101 | 30550 ft | 493 kts | 50° |
| 2026-04-25 15:12 | 5.31537 | -72.74398 | 30772 ft | 491 kts | 50° |
| 2026-04-25 15:13 | 5.34553 | -72.70953 | 31028 ft | 490 kts | 51° |
| 2026-04-25 15:13 | 5.39065 | -72.65798 | 31347 ft | 492 kts | 51° |
| 2026-04-25 15:13 | 5.41322 | -72.63218 | 31480 ft | 493 kts | 51° |
| 2026-04-25 15:14 | 5.43591 | -72.60624 | 31619 ft | 493 kts | 51° |
| 2026-04-25 15:14 | 5.45832 | -72.58063 | 31766 ft | 494 kts | 50° |
| 2026-04-25 15:14 | 5.48101 | -72.55469 | 31879 ft | 496 kts | 51° |
| 2026-04-25 15:14 | 5.50377 | -72.52866 | 31986 ft | 497 kts | 50° |
| 2026-04-25 15:15 | 5.52657 | -72.50259 | 32134 ft | 497 kts | 50° |
| 2026-04-25 15:15 | 5.54946 | -72.47642 | 32264 ft | 498 kts | 50° |
| 2026-04-25 15:15 | 5.57239 | -72.45021 | 32320 ft | 501 kts | 51° |
| 2026-04-25 15:16 | 5.61846 | -72.39750 | 32577 ft | 502 kts | 51° |
| 2026-04-25 15:16 | 5.64147 | -72.37118 | 32720 ft | 501 kts | 51° |
| 2026-04-25 15:16 | 5.68745 | -72.31859 | 33072 ft | 500 kts | 51° |
| 2026-04-25 15:17 | 5.73173 | -72.26793 | 33392 ft | 500 kts | 51° |
| 2026-04-25 15:17 | 5.75463 | -72.24171 | 33532 ft | 499 kts | 50° |
| 2026-04-25 15:17 | 5.77751 | -72.21551 | 33746 ft | 498 kts | 50° |
| 2026-04-25 15:18 | 5.80010 | -72.18966 | 33946 ft | 498 kts | 50° |
| 2026-04-25 15:18 | 5.84582 | -72.13731 | 34298 ft | 496 kts | 51° |
| 2026-04-25 15:18 | 5.86858 | -72.11123 | 34438 ft | 496 kts | 51° |
| 2026-04-25 15:19 | 5.89131 | -72.08519 | 34615 ft | 495 kts | 51° |
| 2026-04-25 15:19 | 5.90636 | -72.06795 | 34726 ft | 495 kts | 51° |
| 2026-04-25 15:19 | 5.93670 | -72.03318 | 34964 ft | 494 kts | 51° |
| 2026-04-25 15:19 | 5.95935 | -72.00723 | 35149 ft | 493 kts | 51° |
| 2026-04-25 15:20 | 5.98167 | -71.98165 | 35317 ft | 493 kts | 51° |
| 2026-04-25 15:20 | 6.00429 | -71.95571 | 35428 ft | 493 kts | 51° |
| 2026-04-25 15:20 | 6.02691 | -71.92977 | 35596 ft | 492 kts | 51° |
| 2026-04-25 15:20 | 6.04944 | -71.90394 | 35769 ft | 491 kts | 51° |
| 2026-04-25 15:21 | 6.07199 | -71.87807 | 35899 ft | 492 kts | 51° |
| 2026-04-25 15:21 | 6.09452 | -71.85222 | 36049 ft | 492 kts | 51° |
| 2026-04-25 15:21 | 6.11706 | -71.82636 | 36186 ft | 491 kts | 51° |
| 2026-04-25 15:21 | 6.13957 | -71.80055 | 36353 ft | 491 kts | 51° |
| 2026-04-25 15:22 | 6.16205 | -71.77475 | 36519 ft | 490 kts | 50° |
| 2026-04-25 15:22 | 6.18420 | -71.74932 | 36691 ft | 489 kts | 50° |
| 2026-04-25 15:22 | 6.20669 | -71.72351 | 36829 ft | 489 kts | 50° |
| 2026-04-25 15:22 | 6.22910 | -71.69779 | 36965 ft | 488 kts | 50° |
| 2026-04-25 15:23 | 6.25143 | -71.67215 | 37095 ft | 488 kts | 50° |
| 2026-04-25 15:23 | 6.27385 | -71.64641 | 37229 ft | 488 kts | 50° |
| 2026-04-25 15:23 | 6.29617 | -71.62077 | 37364 ft | 487 kts | 50° |
| 2026-04-25 15:23 | 6.31847 | -71.59515 | 37493 ft | 487 kts | 50° |
| 2026-04-25 15:24 | 6.34082 | -71.56948 | 37624 ft | 487 kts | 50° |
| 2026-04-25 15:24 | 6.36312 | -71.54385 | 37751 ft | 486 kts | 50° |
| 2026-04-25 15:24 | 6.40021 | -71.50122 | 37885 ft | 487 kts | 50° |
| 2026-04-25 15:25 | 6.42977 | -71.46726 | 38059 ft | 486 kts | 50° |
| 2026-04-25 15:25 | 6.45203 | -71.44166 | 38187 ft | 486 kts | 50° |
| 2026-04-25 15:25 | 6.47429 | -71.41607 | 38304 ft | 485 kts | 50° |
| 2026-04-25 15:25 | 6.49651 | -71.39051 | 38419 ft | 485 kts | 50° |
| 2026-04-25 15:26 | 6.54119 | -71.33911 | 38423 ft | 489 kts | 50° |
| 2026-04-25 15:26 | 6.58604 | -71.28751 | 38495 ft | 491 kts | 50° |
| 2026-04-25 15:27 | 6.63114 | -71.23560 | 38574 ft | 494 kts | 50° |
| 2026-04-25 15:28 | 6.69879 | -71.15773 | 38577 ft | 496 kts | 50° |
| 2026-04-25 15:28 | 6.74431 | -71.10528 | 38573 ft | 499 kts | 50° |
| 2026-04-25 15:29 | 6.79015 | -71.05248 | 38570 ft | 501 kts | 50° |
| 2026-04-25 15:29 | 6.83620 | -70.99940 | 38572 ft | 503 kts | 50° |
| 2026-04-25 15:30 | 6.88230 | -70.94625 | 38575 ft | 504 kts | 50° |
| 2026-04-25 15:30 | 6.92852 | -70.89296 | 38573 ft | 505 kts | 50° |
| 2026-04-25 15:31 | 6.97454 | -70.83987 | 38577 ft | 506 kts | 50° |
| 2026-04-25 15:31 | 7.02094 | -70.78633 | 38573 ft | 507 kts | 50° |
| 2026-04-25 15:32 | 7.06732 | -70.73278 | 38556 ft | 507 kts | 50° |
| 2026-04-25 15:32 | 7.11530 | -70.68062 | 38559 ft | 508 kts | 47° |
| 2026-04-25 15:33 | 7.18985 | -70.60454 | 38565 ft | 509 kts | 47° |
| 2026-04-25 15:33 | 7.23932 | -70.55345 | 38568 ft | 509 kts | 47° |
| 2026-04-25 15:34 | 7.28829 | -70.50242 | 38569 ft | 509 kts | 47° |
| 2026-04-25 15:34 | 7.32117 | -70.46807 | 38571 ft | 509 kts | 47° |
| 2026-04-25 15:35 | 7.40433 | -70.38117 | 38574 ft | 509 kts | 47° |
| 2026-04-25 15:36 | 7.47657 | -70.30571 | 38614 ft | 495 kts | 47° |
| 2026-04-25 15:36 | 7.50040 | -70.28080 | 38852 ft | 491 kts | 47° |
| 2026-04-25 15:36 | 7.52407 | -70.25606 | 38995 ft | 489 kts | 47° |
| 2026-04-25 15:37 | 7.57146 | -70.20650 | 39004 ft | 493 kts | 47° |
| 2026-04-25 15:37 | 7.61923 | -70.15651 | 39004 ft | 496 kts | 47° |
| 2026-04-25 15:38 | 7.66728 | -70.10624 | 39004 ft | 498 kts | 47° |
| 2026-04-25 15:38 | 7.71521 | -70.05608 | 39003 ft | 501 kts | 47° |
| 2026-04-25 15:39 | 7.76371 | -70.00529 | 39003 ft | 503 kts | 47° |
| 2026-04-25 15:39 | 7.81201 | -69.95472 | 39005 ft | 498 kts | 47° |
| 2026-04-25 15:40 | 7.84415 | -69.92104 | 39008 ft | 498 kts | 47° |
| 2026-04-25 15:40 | 7.90826 | -69.85385 | 39004 ft | 499 kts | 47° |
| 2026-04-25 15:41 | 7.94838 | -69.81177 | 39002 ft | 501 kts | 47° |
| 2026-04-25 15:41 | 7.99627 | -69.76154 | 39002 ft | 502 kts | 47° |
| 2026-04-25 15:42 | 8.04476 | -69.71067 | 39002 ft | 502 kts | 47° |
| 2026-04-25 15:42 | 8.09321 | -69.65981 | 39002 ft | 502 kts | 47° |
| 2026-04-25 15:43 | 8.14158 | -69.60902 | 39002 ft | 502 kts | 47° |
| 2026-04-25 15:43 | 8.18971 | -69.55847 | 39001 ft | 502 kts | 47° |
| 2026-04-25 15:44 | 8.23821 | -69.50750 | 38999 ft | 503 kts | 47° |
| 2026-04-25 15:44 | 8.28672 | -69.45652 | 38999 ft | 503 kts | 47° |
| 2026-04-25 15:45 | 8.33502 | -69.40573 | 38997 ft | 503 kts | 47° |
| 2026-04-25 15:45 | 8.36746 | -69.37160 | 38999 ft | 503 kts | 47° |
| 2026-04-25 15:46 | 8.43207 | -69.30361 | 38996 ft | 503 kts | 47° |
| 2026-04-25 15:46 | 8.48056 | -69.25255 | 38996 ft | 503 kts | 47° |
| 2026-04-25 15:47 | 8.52908 | -69.20146 | 38994 ft | 503 kts | 47° |
| 2026-04-25 15:47 | 8.57740 | -69.15054 | 38996 ft | 506 kts | 47° |
| 2026-04-25 15:48 | 8.62638 | -69.09891 | 38994 ft | 509 kts | 47° |
| 2026-04-25 15:48 | 8.66710 | -69.05598 | 38999 ft | 508 kts | 47° |
| 2026-04-25 15:49 | 8.71604 | -69.00436 | 38992 ft | 508 kts | 47° |
| 2026-04-25 15:49 | 8.76502 | -68.95267 | 38996 ft | 508 kts | 47° |
| 2026-04-25 15:50 | 8.81392 | -68.90105 | 38994 ft | 509 kts | 47° |
| 2026-04-25 15:50 | 8.86277 | -68.84946 | 38983 ft | 512 kts | 47° |
| 2026-04-25 15:51 | 8.90411 | -68.80577 | 38988 ft | 514 kts | 47° |
| 2026-04-25 15:51 | 8.96164 | -68.74497 | 38984 ft | 516 kts | 47° |
| 2026-04-25 15:52 | 9.01134 | -68.69241 | 38987 ft | 517 kts | 47° |
| 2026-04-25 15:52 | 9.06109 | -68.63979 | 38987 ft | 517 kts | 47° |
| 2026-04-25 15:53 | 9.11088 | -68.58709 | 38986 ft | 517 kts | 47° |
| 2026-04-25 15:53 | 9.16029 | -68.53478 | 38984 ft | 517 kts | 47° |
| 2026-04-25 15:54 | 9.21010 | -68.48202 | 38988 ft | 518 kts | 47° |
| 2026-04-25 15:54 | 9.25992 | -68.42923 | 38988 ft | 518 kts | 47° |
| 2026-04-25 15:55 | 9.30973 | -68.37642 | 38988 ft | 518 kts | 47° |
| 2026-04-25 15:55 | 9.35947 | -68.32367 | 38990 ft | 518 kts | 47° |
| 2026-04-25 15:56 | 9.40907 | -68.27104 | 38986 ft | 518 kts | 47° |
| 2026-04-25 15:56 | 9.45881 | -68.21822 | 38987 ft | 518 kts | 47° |
| 2026-04-25 15:57 | 9.50864 | -68.16531 | 38989 ft | 518 kts | 47° |
| 2026-04-25 15:57 | 9.55840 | -68.11244 | 38993 ft | 518 kts | 47° |
| 2026-04-25 15:58 | 9.60787 | -68.05985 | 38992 ft | 518 kts | 47° |
| 2026-04-25 15:58 | 9.65761 | -68.00694 | 38991 ft | 517 kts | 47° |
| 2026-04-25 15:59 | 9.70735 | -67.95403 | 39000 ft | 517 kts | 47° |
| 2026-04-25 15:59 | 9.75668 | -67.90152 | 39000 ft | 518 kts | 47° |
| 2026-04-25 16:00 | 9.78995 | -67.86608 | 39004 ft | 518 kts | 47° |
| 2026-04-25 16:00 | 9.85611 | -67.79559 | 39018 ft | 519 kts | 47° |
| 2026-04-25 16:01 | 9.90601 | -67.74240 | 39006 ft | 521 kts | 47° |
| 2026-04-25 16:01 | 9.95191 | -67.69346 | 39006 ft | 522 kts | 47° |
| 2026-04-25 16:02 | 10.00217 | -67.63983 | 39011 ft | 522 kts | 47° |
| 2026-04-25 16:02 | 10.05224 | -67.58639 | 39003 ft | 523 kts | 47° |
| 2026-04-25 16:03 | 10.10207 | -67.53317 | 39013 ft | 523 kts | 48° |
| 2026-04-25 16:03 | 10.15212 | -67.47969 | 39007 ft | 522 kts | 48° |
| 2026-04-25 16:04 | 10.20215 | -67.42622 | 38998 ft | 521 kts | 48° |
| 2026-04-25 16:04 | 10.25213 | -67.37276 | 39002 ft | 521 kts | 48° |
| 2026-04-25 16:05 | 10.30180 | -67.31962 | 38998 ft | 521 kts | 48° |
| 2026-04-25 16:06 | 10.37663 | -67.23950 | 39010 ft | 521 kts | 48° |
| 2026-04-25 16:06 | 10.42648 | -67.18609 | 39012 ft | 521 kts | 47° |
| 2026-04-25 16:07 | 10.47633 | -67.13265 | 38999 ft | 521 kts | 48° |
| 2026-04-25 16:07 | 10.52622 | -67.07915 | 38999 ft | 521 kts | 48° |
| 2026-04-25 16:08 | 10.57613 | -67.02560 | 38964 ft | 521 kts | 48° |
| 2026-04-25 16:08 | 10.62251 | -66.96933 | 38965 ft | 518 kts | 56° |
| 2026-04-25 16:09 | 10.66342 | -66.90946 | 38971 ft | 518 kts | 58° |
| 2026-04-25 16:09 | 10.70375 | -66.84852 | 38972 ft | 520 kts | 57° |
| 2026-04-25 16:10 | 10.74411 | -66.78740 | 38973 ft | 522 kts | 57° |
| 2026-04-25 16:10 | 10.78476 | -66.72604 | 38970 ft | 523 kts | 58° |
| 2026-04-25 16:11 | 10.82261 | -66.66899 | 38955 ft | 524 kts | 58° |
| 2026-04-25 16:11 | 10.86349 | -66.60737 | 38955 ft | 525 kts | 58° |
| 2026-04-25 16:12 | 10.90416 | -66.54602 | 38958 ft | 525 kts | 57° |
| 2026-04-25 16:12 | 10.94532 | -66.48389 | 38952 ft | 526 kts | 57° |
| 2026-04-25 16:13 | 10.98595 | -66.42251 | 38949 ft | 526 kts | 57° |
| 2026-04-25 16:13 | 11.02695 | -66.36056 | 38952 ft | 526 kts | 57° |
| 2026-04-25 16:14 | 11.06841 | -66.29904 | 38953 ft | 527 kts | 57° |
| 2026-04-25 16:14 | 11.11036 | -66.23766 | 38956 ft | 527 kts | 57° |
| 2026-04-25 16:15 | 11.15197 | -66.17668 | 38954 ft | 526 kts | 57° |
| 2026-04-25 16:15 | 11.19363 | -66.11539 | 38960 ft | 525 kts | 57° |
| 2026-04-25 16:16 | 11.23521 | -66.05412 | 38958 ft | 525 kts | 57° |
| 2026-04-25 16:16 | 11.27674 | -65.99287 | 38957 ft | 525 kts | 57° |
| 2026-04-25 16:17 | 11.31829 | -65.93156 | 38960 ft | 525 kts | 57° |
| 2026-04-25 16:17 | 11.35946 | -65.87080 | 38958 ft | 524 kts | 57° |
| 2026-04-25 16:18 | 11.40087 | -65.80964 | 38961 ft | 524 kts | 57° |
| 2026-04-25 16:18 | 11.44223 | -65.74853 | 38960 ft | 524 kts | 57° |
| 2026-04-25 16:19 | 11.48355 | -65.68746 | 38964 ft | 523 kts | 57° |
| 2026-04-25 16:19 | 11.52490 | -65.62616 | 38963 ft | 523 kts | 57° |
| 2026-04-25 16:20 | 11.58687 | -65.53425 | 38963 ft | 525 kts | 57° |
| 2026-04-25 16:21 | 11.64874 | -65.44247 | 38960 ft | 526 kts | 57° |
| 2026-04-25 16:21 | 11.68438 | -65.38960 | 38960 ft | 526 kts | 57° |
| 2026-04-25 16:22 | 11.72657 | -65.32834 | 38961 ft | 527 kts | 56° |
| 2026-04-25 16:22 | 11.76901 | -65.26730 | 38958 ft | 528 kts | 55° |
| 2026-04-25 16:23 | 11.81155 | -65.20594 | 38960 ft | 529 kts | 55° |
| 2026-04-25 16:23 | 11.85406 | -65.14440 | 38960 ft | 531 kts | 56° |
| 2026-04-25 16:24 | 11.89632 | -65.08313 | 38958 ft | 531 kts | 56° |
| 2026-04-25 16:24 | 11.93899 | -65.02122 | 38957 ft | 532 kts | 56° |
| 2026-04-25 16:25 | 11.98151 | -64.95951 | 38960 ft | 532 kts | 56° |
| 2026-04-25 16:25 | 12.02416 | -64.89756 | 38962 ft | 534 kts | 56° |
| 2026-04-25 16:26 | 12.06692 | -64.83542 | 38960 ft | 535 kts | 56° |
| 2026-04-25 16:26 | 12.10979 | -64.77308 | 38960 ft | 536 kts | 56° |
| 2026-04-25 16:27 | 12.15242 | -64.71105 | 38961 ft | 536 kts | 56° |
| 2026-04-25 16:27 | 12.19532 | -64.64859 | 38960 ft | 536 kts | 56° |
| 2026-04-25 16:28 | 12.23826 | -64.58603 | 38962 ft | 536 kts | 56° |
| 2026-04-25 16:28 | 12.28110 | -64.52356 | 38960 ft | 537 kts | 56° |
| 2026-04-25 16:29 | 12.32398 | -64.46101 | 38957 ft | 537 kts | 56° |
| 2026-04-25 16:29 | 12.36656 | -64.39885 | 38963 ft | 537 kts | 56° |
| 2026-04-25 16:30 | 12.40912 | -64.33601 | 38963 ft | 537 kts | 57° |
| 2026-04-25 16:30 | 12.45144 | -64.27305 | 38963 ft | 537 kts | 57° |
| 2026-04-25 16:31 | 12.49244 | -64.21211 | 38964 ft | 537 kts | 57° |
| 2026-04-25 16:31 | 12.53485 | -64.14913 | 38965 ft | 538 kts | 56° |
| 2026-04-25 16:32 | 12.57744 | -64.08587 | 38966 ft | 539 kts | 56° |
| 2026-04-25 16:32 | 12.61971 | -64.02307 | 38965 ft | 539 kts | 57° |
| 2026-04-25 16:33 | 12.66221 | -63.95988 | 38963 ft | 537 kts | 57° |
| 2026-04-25 16:33 | 12.70454 | -63.89687 | 38963 ft | 537 kts | 57° |
| 2026-04-25 16:34 | 12.74689 | -63.83380 | 38966 ft | 536 kts | 57° |
| 2026-04-25 16:34 | 12.78917 | -63.77080 | 38966 ft | 536 kts | 57° |
| 2026-04-25 16:35 | 12.83128 | -63.70801 | 38968 ft | 537 kts | 57° |
| 2026-04-25 16:35 | 12.86724 | -63.65548 | 38965 ft | 537 kts | 52° |
| 2026-04-25 16:36 | 12.91357 | -63.59626 | 38964 ft | 535 kts | 52° |
| 2026-04-25 16:36 | 12.96093 | -63.53724 | 38965 ft | 536 kts | 51° |
| 2026-04-25 16:37 | 13.00853 | -63.47816 | 38970 ft | 537 kts | 51° |
| 2026-04-25 16:37 | 13.05578 | -63.41937 | 38968 ft | 537 kts | 51° |
| 2026-04-25 16:38 | 13.10329 | -63.36014 | 38971 ft | 538 kts | 51° |
| 2026-04-25 16:38 | 13.15088 | -63.30073 | 38968 ft | 538 kts | 51° |
| 2026-04-25 16:39 | 13.19857 | -63.24116 | 38971 ft | 538 kts | 51° |
| 2026-04-25 16:39 | 13.24611 | -63.18175 | 38971 ft | 538 kts | 51° |
| 2026-04-25 16:40 | 13.29338 | -63.12262 | 38965 ft | 538 kts | 51° |
| 2026-04-25 16:40 | 13.34088 | -63.06317 | 38968 ft | 538 kts | 51° |
| 2026-04-25 16:41 | 13.38839 | -63.00367 | 38971 ft | 538 kts | 51° |
| 2026-04-25 16:41 | 13.45917 | -62.91495 | 38971 ft | 538 kts | 51° |
| 2026-04-25 16:42 | 13.50661 | -62.85544 | 38968 ft | 538 kts | 51° |
| 2026-04-25 16:42 | 13.55405 | -62.79588 | 38968 ft | 538 kts | 51° |
| 2026-04-25 16:43 | 13.60141 | -62.73639 | 38971 ft | 537 kts | 51° |
| 2026-04-25 16:43 | 13.64871 | -62.67692 | 38971 ft | 537 kts | 51° |
| 2026-04-25 16:44 | 13.69605 | -62.61736 | 38972 ft | 538 kts | 51° |
| 2026-04-25 16:44 | 13.74322 | -62.55798 | 38971 ft | 539 kts | 51° |
| 2026-04-25 16:45 | 13.79062 | -62.49827 | 38968 ft | 539 kts | 51° |
| 2026-04-25 16:45 | 13.83801 | -62.43852 | 38969 ft | 538 kts | 51° |
| 2026-04-25 16:46 | 13.88533 | -62.37883 | 38974 ft | 538 kts | 51° |
| 2026-04-25 16:46 | 13.92463 | -62.32922 | 38974 ft | 537 kts | 51° |
| 2026-04-25 16:47 | 13.97958 | -62.25978 | 38974 ft | 538 kts | 51° |
| 2026-04-25 16:47 | 14.02694 | -62.19991 | 38974 ft | 539 kts | 51° |
| 2026-04-25 16:48 | 14.07427 | -62.14003 | 38974 ft | 539 kts | 51° |
| 2026-04-25 16:48 | 14.12166 | -62.08003 | 38974 ft | 539 kts | 51° |
| 2026-04-25 16:49 | 14.16903 | -62.02001 | 38974 ft | 539 kts | 51° |
| 2026-04-25 16:49 | 14.21638 | -61.95997 | 38976 ft | 540 kts | 51° |
| 2026-04-25 16:50 | 14.26343 | -61.90026 | 38972 ft | 531 kts | 51° |
| 2026-04-25 16:50 | 14.30953 | -61.84172 | 38973 ft | 528 kts | 51° |
| 2026-04-25 16:51 | 14.35584 | -61.78288 | 38974 ft | 528 kts | 51° |
| 2026-04-25 16:51 | 14.39431 | -61.73396 | 38974 ft | 528 kts | 51° |
| 2026-04-25 16:52 | 14.44847 | -61.66503 | 38974 ft | 528 kts | 51° |
| 2026-04-25 16:52 | 14.49473 | -61.60612 | 38976 ft | 528 kts | 51° |
| 2026-04-25 16:53 | 14.56425 | -61.51750 | 38974 ft | 530 kts | 51° |
| 2026-04-25 16:54 | 14.61071 | -61.45823 | 38974 ft | 530 kts | 51° |
| 2026-04-25 16:54 | 14.65675 | -61.39944 | 38974 ft | 530 kts | 51° |
| 2026-04-25 16:55 | 14.70299 | -61.34035 | 38977 ft | 530 kts | 51° |
| 2026-04-25 16:55 | 14.74960 | -61.28074 | 38984 ft | 530 kts | 51° |
| 2026-04-25 16:56 | 14.79596 | -61.22142 | 38978 ft | 531 kts | 51° |
| 2026-04-25 16:56 | 14.84214 | -61.16228 | 38975 ft | 531 kts | 51° |
| 2026-04-25 16:57 | 14.88864 | -61.10270 | 38981 ft | 531 kts | 51° |
| 2026-04-25 16:57 | 14.93505 | -61.04323 | 38984 ft | 531 kts | 51° |
| 2026-04-25 16:58 | 14.98142 | -60.98364 | 38986 ft | 531 kts | 51° |
| 2026-04-25 16:58 | 15.02754 | -60.92436 | 38987 ft | 532 kts | 51° |
| 2026-04-25 16:59 | 15.07399 | -60.86462 | 38984 ft | 533 kts | 51° |
| 2026-04-25 16:59 | 15.12041 | -60.80489 | 38984 ft | 533 kts | 51° |
| 2026-04-25 17:00 | 15.16687 | -60.74506 | 38983 ft | 533 kts | 51° |
| 2026-04-25 17:00 | 15.21339 | -60.68510 | 38985 ft | 533 kts | 51° |
| 2026-04-25 17:01 | 15.25985 | -60.62518 | 38984 ft | 533 kts | 51° |
| 2026-04-25 17:01 | 15.29847 | -60.57533 | 38986 ft | 534 kts | 51° |
| 2026-04-25 17:02 | 15.33831 | -60.52388 | 38987 ft | 534 kts | 51° |
| 2026-04-25 17:02 | 15.38338 | -60.46562 | 38984 ft | 535 kts | 51° |
| 2026-04-25 17:03 | 15.42995 | -60.40537 | 38987 ft | 535 kts | 51° |
| 2026-04-25 17:03 | 15.47431 | -60.34795 | 38989 ft | 535 kts | 51° |
| 2026-04-25 17:04 | 15.51951 | -60.28939 | 38988 ft | 535 kts | 51° |
| 2026-04-25 17:04 | 15.56555 | -60.22970 | 38987 ft | 535 kts | 51° |
| 2026-04-25 17:05 | 15.61182 | -60.16965 | 38983 ft | 535 kts | 51° |
| 2026-04-25 17:05 | 15.68107 | -60.07970 | 38988 ft | 535 kts | 51° |
| 2026-04-25 17:06 | 15.72752 | -60.01931 | 38991 ft | 535 kts | 51° |
| 2026-04-25 17:06 | 15.77403 | -59.95879 | 38991 ft | 535 kts | 51° |
| 2026-04-25 17:07 | 15.82050 | -59.89826 | 38986 ft | 535 kts | 51° |
| 2026-04-25 17:07 | 15.86665 | -59.83811 | 38987 ft | 536 kts | 51° |
| 2026-04-25 17:08 | 15.91338 | -59.77715 | 38990 ft | 536 kts | 51° |
| 2026-04-25 17:08 | 15.95948 | -59.71697 | 38988 ft | 536 kts | 51° |
| 2026-04-25 17:09 | 15.99835 | -59.66618 | 38990 ft | 536 kts | 51° |
| 2026-04-25 17:09 | 16.03695 | -59.61571 | 38993 ft | 536 kts | 51° |
| 2026-04-25 17:10 | 16.08336 | -59.55499 | 38987 ft | 536 kts | 51° |
| 2026-04-25 17:10 | 16.12984 | -59.49412 | 38987 ft | 537 kts | 51° |
| 2026-04-25 17:11 | 16.17595 | -59.43370 | 38984 ft | 537 kts | 51° |
| 2026-04-25 17:11 | 16.22234 | -59.37287 | 38989 ft | 536 kts | 51° |
| 2026-04-25 17:12 | 16.26871 | -59.31198 | 38983 ft | 536 kts | 51° |
| 2026-04-25 17:12 | 16.31508 | -59.25104 | 38993 ft | 536 kts | 51° |
| 2026-04-25 17:13 | 16.34606 | -59.21031 | 38989 ft | 537 kts | 51° |
| 2026-04-25 17:13 | 16.40796 | -59.12886 | 38988 ft | 537 kts | 51° |
| 2026-04-25 17:14 | 16.45407 | -59.06813 | 38990 ft | 537 kts | 51° |
| 2026-04-25 17:14 | 16.50051 | -59.00690 | 38991 ft | 537 kts | 51° |
| 2026-04-25 17:15 | 16.54681 | -58.94580 | 39002 ft | 537 kts | 51° |
| 2026-04-25 17:15 | 16.59312 | -58.88465 | 38993 ft | 538 kts | 51° |
| 2026-04-25 17:16 | 16.63953 | -58.82331 | 38991 ft | 538 kts | 51° |
| 2026-04-25 17:16 | 16.68562 | -58.76234 | 38993 ft | 538 kts | 51° |
| 2026-04-25 17:17 | 16.73195 | -58.70099 | 38991 ft | 538 kts | 51° |
| 2026-04-25 17:17 | 16.77832 | -58.63954 | 38993 ft | 538 kts | 51° |
| 2026-04-25 17:18 | 16.82470 | -58.57803 | 38994 ft | 539 kts | 51° |
| 2026-04-25 17:18 | 16.87109 | -58.51644 | 38997 ft | 540 kts | 51° |
| 2026-04-25 17:19 | 16.91730 | -58.45504 | 38993 ft | 540 kts | 51° |
| 2026-04-25 17:19 | 16.96366 | -58.39338 | 38996 ft | 539 kts | 51° |
| 2026-04-25 17:20 | 17.01007 | -58.33161 | 38996 ft | 539 kts | 51° |
| 2026-04-25 17:20 | 17.05643 | -58.26984 | 39006 ft | 540 kts | 51° |
| 2026-04-25 17:21 | 17.10295 | -58.20780 | 39006 ft | 542 kts | 51° |
| 2026-04-25 17:21 | 17.14919 | -58.14609 | 38987 ft | 542 kts | 51° |
| 2026-04-25 17:22 | 17.18025 | -58.10460 | 39003 ft | 541 kts | 51° |
| 2026-04-25 17:22 | 17.23417 | -58.03251 | 39006 ft | 541 kts | 51° |
| 2026-04-25 17:23 | 17.28063 | -57.97034 | 38998 ft | 541 kts | 51° |
| 2026-04-25 17:23 | 17.32706 | -57.90816 | 39000 ft | 543 kts | 51° |
| 2026-04-25 17:24 | 17.37353 | -57.84586 | 39000 ft | 542 kts | 51° |
| 2026-04-25 17:24 | 17.41969 | -57.78392 | 39001 ft | 542 kts | 51° |
| 2026-04-25 17:25 | 17.46607 | -57.72163 | 39000 ft | 542 kts | 51° |
| 2026-04-25 17:25 | 17.51246 | -57.65926 | 39016 ft | 542 kts | 51° |
| 2026-04-25 17:26 | 17.55884 | -57.59686 | 39003 ft | 543 kts | 51° |
| 2026-04-25 17:26 | 17.60523 | -57.53437 | 39005 ft | 543 kts | 51° |
| 2026-04-25 17:27 | 17.65177 | -57.47166 | 39005 ft | 543 kts | 51° |
| 2026-04-25 17:27 | 17.69046 | -57.41953 | 39003 ft | 544 kts | 51° |
| 2026-04-25 17:28 | 17.74464 | -57.34627 | 39011 ft | 543 kts | 51° |
| 2026-04-25 17:28 | 17.79053 | -57.28417 | 39003 ft | 544 kts | 51° |
| 2026-04-25 17:29 | 17.83726 | -57.22092 | 39008 ft | 544 kts | 51° |
| 2026-04-25 17:29 | 17.88365 | -57.15807 | 39009 ft | 544 kts | 51° |
| 2026-04-25 17:30 | 17.93002 | -57.09519 | 39008 ft | 544 kts | 51° |
| 2026-04-25 17:30 | 17.97635 | -57.03231 | 39023 ft | 544 kts | 51° |
| 2026-04-25 17:31 | 18.01601 | -56.96449 | 39012 ft | 545 kts | 63° |
| 2026-04-25 17:31 | 18.02733 | -56.94088 | 39008 ft | 546 kts | 64° |
| 2026-04-25 17:32 | 18.04704 | -56.89824 | 39008 ft | 546 kts | 65° |
| 2026-04-25 17:32 | 18.07960 | -56.82599 | 39007 ft | 546 kts | 65° |
| 2026-04-25 17:33 | 18.11205 | -56.75387 | 39011 ft | 546 kts | 65° |
| 2026-04-25 17:33 | 18.14467 | -56.68170 | 39011 ft | 546 kts | 65° |
| 2026-04-25 17:34 | 18.17731 | -56.60962 | 39008 ft | 546 kts | 65° |
| 2026-04-25 17:34 | 18.20995 | -56.53747 | 39009 ft | 546 kts | 65° |
| 2026-04-25 17:35 | 18.24252 | -56.46539 | 39010 ft | 545 kts | 65° |
| 2026-04-25 17:35 | 18.27508 | -56.39322 | 39013 ft | 545 kts | 65° |
| 2026-04-25 17:36 | 18.30737 | -56.32156 | 39011 ft | 545 kts | 65° |
| 2026-04-25 17:36 | 18.33614 | -56.25765 | 39013 ft | 545 kts | 65° |
| 2026-04-25 17:37 | 18.36861 | -56.18542 | 39011 ft | 544 kts | 65° |
| 2026-04-25 17:37 | 18.40103 | -56.11324 | 39011 ft | 545 kts | 65° |
| 2026-04-25 17:38 | 18.42794 | -56.05323 | 39010 ft | 546 kts | 65° |
| 2026-04-25 17:38 | 18.46567 | -55.96902 | 39012 ft | 546 kts | 65° |
| 2026-04-25 17:39 | 18.49809 | -55.89656 | 39010 ft | 546 kts | 65° |
| 2026-04-25 17:39 | 18.53043 | -55.82418 | 39015 ft | 546 kts | 65° |
| 2026-04-25 17:40 | 18.56286 | -55.75154 | 39012 ft | 546 kts | 65° |
| 2026-04-25 17:40 | 18.59517 | -55.67906 | 39012 ft | 546 kts | 65° |
| 2026-04-25 17:41 | 18.62732 | -55.60685 | 39010 ft | 548 kts | 65° |
| 2026-04-25 17:41 | 18.65972 | -55.53398 | 39011 ft | 548 kts | 65° |
| 2026-04-25 17:42 | 18.69207 | -55.46113 | 39013 ft | 547 kts | 65° |
| 2026-04-25 17:42 | 18.72428 | -55.38851 | 39013 ft | 546 kts | 65° |
| 2026-04-25 17:43 | 18.75644 | -55.31591 | 39018 ft | 546 kts | 65° |
| 2026-04-25 17:43 | 18.78847 | -55.24354 | 39015 ft | 547 kts | 65° |
| 2026-04-25 17:44 | 18.82063 | -55.17075 | 39018 ft | 548 kts | 65° |
| 2026-04-25 17:44 | 18.85285 | -55.09774 | 39021 ft | 547 kts | 65° |
| 2026-04-25 17:45 | 18.87437 | -55.04893 | 39019 ft | 547 kts | 65° |
| 2026-04-25 17:45 | 18.91707 | -54.95195 | 39020 ft | 547 kts | 65° |
| 2026-04-25 17:46 | 18.94913 | -54.87902 | 39020 ft | 546 kts | 65° |
| 2026-04-25 17:46 | 18.97284 | -54.82505 | 39025 ft | 547 kts | 65° |
| 2026-04-25 17:47 | 19.00489 | -54.75198 | 39015 ft | 549 kts | 65° |
| 2026-04-25 17:47 | 19.03697 | -54.67876 | 39023 ft | 548 kts | 65° |
| 2026-04-25 17:48 | 19.08507 | -54.56880 | 39024 ft | 548 kts | 65° |
| 2026-04-25 17:49 | 19.11690 | -54.49591 | 39014 ft | 548 kts | 65° |
| 2026-04-25 17:49 | 19.14887 | -54.42261 | 39031 ft | 547 kts | 65° |
| 2026-04-25 17:50 | 19.18074 | -54.34944 | 39028 ft | 549 kts | 65° |
| 2026-04-25 17:50 | 19.21276 | -54.27584 | 39017 ft | 550 kts | 65° |
| 2026-04-25 17:51 | 19.24469 | -54.20235 | 39017 ft | 549 kts | 65° |
| 2026-04-25 17:51 | 19.27639 | -54.12928 | 39023 ft | 549 kts | 65° |
| 2026-04-25 17:52 | 19.30821 | -54.05585 | 39024 ft | 548 kts | 65° |
| 2026-04-25 17:52 | 19.34001 | -53.98235 | 39026 ft | 549 kts | 65° |
| 2026-04-25 17:53 | 19.37186 | -53.90868 | 39024 ft | 550 kts | 65° |
| 2026-04-25 17:53 | 19.40348 | -53.83542 | 39022 ft | 550 kts | 65° |
| 2026-04-25 17:54 | 19.43525 | -53.76170 | 39024 ft | 550 kts | 65° |
| 2026-04-25 17:54 | 19.46704 | -53.68786 | 39020 ft | 549 kts | 65° |
| 2026-04-25 17:55 | 19.49873 | -53.61413 | 39025 ft | 548 kts | 65° |
| 2026-04-25 17:55 | 19.53015 | -53.54095 | 39029 ft | 550 kts | 65° |
| 2026-04-25 17:56 | 19.56187 | -53.46697 | 39024 ft | 551 kts | 65° |
| 2026-04-25 17:56 | 19.59358 | -53.39291 | 39024 ft | 551 kts | 65° |
| 2026-04-25 17:57 | 19.62525 | -53.31885 | 39027 ft | 551 kts | 65° |
| 2026-04-25 17:57 | 19.65689 | -53.24474 | 39021 ft | 551 kts | 65° |
| 2026-04-25 17:58 | 19.68850 | -53.17063 | 39029 ft | 551 kts | 65° |
| 2026-04-25 17:58 | 19.72007 | -53.09649 | 39031 ft | 552 kts | 65° |
| 2026-04-25 17:59 | 19.75152 | -53.02254 | 39026 ft | 552 kts | 65° |
| 2026-04-25 17:59 | 19.78310 | -52.94819 | 39033 ft | 552 kts | 65° |
| 2026-04-25 18:00 | 19.81464 | -52.87381 | 39032 ft | 551 kts | 65° |
| 2026-04-25 18:00 | 19.84611 | -52.79951 | 39030 ft | 552 kts | 65° |
| 2026-04-25 18:01 | 19.87766 | -52.72493 | 39031 ft | 552 kts | 65° |
| 2026-04-25 18:01 | 19.90912 | -52.65043 | 39034 ft | 552 kts | 65° |
| 2026-04-25 18:02 | 19.94037 | -52.57635 | 39035 ft | 552 kts | 65° |
| 2026-04-25 18:02 | 19.97177 | -52.50181 | 39034 ft | 552 kts | 65° |
| 2026-04-25 18:03 | 20.00310 | -52.42731 | 39031 ft | 551 kts | 65° |
| 2026-04-25 18:03 | 20.03442 | -52.35275 | 39036 ft | 551 kts | 65° |
| 2026-04-25 18:04 | 20.06569 | -52.27820 | 39022 ft | 551 kts | 65° |
| 2026-04-25 18:04 | 20.09686 | -52.20380 | 39033 ft | 550 kts | 65° |
| 2026-04-25 18:05 | 20.12781 | -52.12981 | 39036 ft | 549 kts | 65° |
| 2026-04-25 18:05 | 20.15885 | -52.05549 | 39035 ft | 549 kts | 65° |
| 2026-04-25 18:06 | 20.18990 | -51.98105 | 39041 ft | 549 kts | 65° |
| 2026-04-25 18:06 | 20.21562 | -51.91931 | 39034 ft | 550 kts | 65° |
| 2026-04-25 18:07 | 20.24670 | -51.84461 | 39036 ft | 550 kts | 65° |
| 2026-04-25 18:07 | 20.28274 | -51.75785 | 39034 ft | 550 kts | 65° |
| 2026-04-25 18:08 | 20.30864 | -51.69540 | 39038 ft | 550 kts | 65° |
| 2026-04-25 18:08 | 20.33935 | -51.62127 | 39031 ft | 550 kts | 65° |
| 2026-04-25 18:09 | 20.37025 | -51.54657 | 39041 ft | 550 kts | 65° |
| 2026-04-25 18:09 | 20.40118 | -51.47171 | 39042 ft | 551 kts | 65° |
| 2026-04-25 18:10 | 20.43201 | -51.39696 | 39040 ft | 551 kts | 65° |
| 2026-04-25 18:10 | 20.46283 | -51.32215 | 39036 ft | 551 kts | 65° |
| 2026-04-25 18:11 | 20.49339 | -51.24784 | 39037 ft | 550 kts | 65° |
| 2026-04-25 18:11 | 20.52413 | -51.17300 | 39034 ft | 550 kts | 65° |
| 2026-04-25 18:12 | 20.55485 | -51.09809 | 39046 ft | 552 kts | 65° |
| 2026-04-25 18:12 | 20.58566 | -51.02288 | 39035 ft | 552 kts | 65° |
| 2026-04-25 18:13 | 20.61055 | -50.96202 | 39037 ft | 552 kts | 65° |
| 2026-04-25 18:13 | 20.64124 | -50.88688 | 39037 ft | 552 kts | 65° |
| 2026-04-25 18:14 | 20.68720 | -50.77414 | 39043 ft | 552 kts | 65° |
| 2026-04-25 18:14 | 20.71793 | -50.69863 | 39042 ft | 554 kts | 65° |
| 2026-04-25 18:15 | 20.74846 | -50.62350 | 39040 ft | 554 kts | 65° |
| 2026-04-25 18:15 | 20.77916 | -50.54785 | 39040 ft | 553 kts | 65° |
| 2026-04-25 18:16 | 20.80975 | -50.47233 | 39037 ft | 553 kts | 65° |
| 2026-04-25 18:17 | 20.85558 | -50.35903 | 39043 ft | 554 kts | 65° |
| 2026-04-25 18:17 | 20.88599 | -50.28369 | 39042 ft | 555 kts | 65° |
| 2026-04-25 18:18 | 20.91653 | -50.20790 | 39040 ft | 554 kts | 65° |
| 2026-04-25 18:18 | 20.94702 | -50.13216 | 39039 ft | 554 kts | 65° |
| 2026-04-25 18:19 | 20.97745 | -50.05642 | 39052 ft | 553 kts | 65° |
| 2026-04-25 18:19 | 21.00430 | -49.97918 | 39046 ft | 556 kts | 73° |
| 2026-04-25 18:20 | 21.02406 | -49.89899 | 39043 ft | 557 kts | 75° |
| 2026-04-25 18:20 | 21.04260 | -49.81844 | 39045 ft | 557 kts | 76° |
| 2026-04-25 18:21 | 21.06090 | -49.73840 | 39036 ft | 557 kts | 75° |
| 2026-04-25 18:21 | 21.07940 | -49.65793 | 39046 ft | 556 kts | 75° |
| 2026-04-25 18:22 | 21.09794 | -49.57754 | 39052 ft | 556 kts | 75° |
| 2026-04-25 18:22 | 21.11648 | -49.49699 | 39041 ft | 557 kts | 75° |
| 2026-04-25 18:23 | 21.13448 | -49.41859 | 39045 ft | 557 kts | 75° |
| 2026-04-25 18:23 | 21.15292 | -49.33808 | 39045 ft | 557 kts | 75° |
| 2026-04-25 18:24 | 21.17126 | -49.25783 | 39043 ft | 556 kts | 75° |
| 2026-04-25 18:24 | 21.18482 | -49.19837 | 39045 ft | 556 kts | 75° |
| 2026-04-25 18:25 | 21.20315 | -49.11779 | 39045 ft | 555 kts | 75° |
| 2026-04-25 18:25 | 21.22132 | -49.03777 | 39045 ft | 556 kts | 75° |
| 2026-04-25 18:26 | 21.23960 | -48.95705 | 39047 ft | 556 kts | 75° |
| 2026-04-25 18:26 | 21.25473 | -48.89011 | 39045 ft | 556 kts | 75° |
| 2026-04-25 18:27 | 21.27148 | -48.81585 | 39048 ft | 556 kts | 75° |
| 2026-04-25 18:27 | 21.28962 | -48.73527 | 39051 ft | 556 kts | 75° |
| 2026-04-25 18:28 | 21.30775 | -48.65453 | 39049 ft | 556 kts | 75° |
| 2026-04-25 18:28 | 21.32580 | -48.57393 | 39048 ft | 555 kts | 75° |
| 2026-04-25 18:29 | 21.35272 | -48.45338 | 39047 ft | 556 kts | 75° |
| 2026-04-25 18:30 | 21.38865 | -48.29183 | 39053 ft | 555 kts | 75° |
| 2026-04-25 18:30 | 21.40652 | -48.21117 | 39049 ft | 555 kts | 75° |
| 2026-04-25 18:31 | 21.42434 | -48.13057 | 39050 ft | 555 kts | 75° |
| 2026-04-25 18:31 | 21.44200 | -48.05049 | 39050 ft | 555 kts | 75° |
| 2026-04-25 18:32 | 21.45975 | -47.96982 | 39048 ft | 555 kts | 75° |
| 2026-04-25 18:32 | 21.47744 | -47.88921 | 39051 ft | 554 kts | 76° |
| 2026-04-25 18:33 | 21.49508 | -47.80864 | 39054 ft | 554 kts | 76° |
| 2026-04-25 18:33 | 21.51259 | -47.72846 | 39050 ft | 554 kts | 76° |
| 2026-04-25 18:34 | 21.53015 | -47.64785 | 39056 ft | 553 kts | 75° |
| 2026-04-25 18:34 | 21.54766 | -47.56731 | 39050 ft | 554 kts | 75° |
| 2026-04-25 18:35 | 21.56516 | -47.48656 | 39053 ft | 554 kts | 76° |
| 2026-04-25 18:35 | 21.58262 | -47.40585 | 39053 ft | 554 kts | 76° |
| 2026-04-25 18:36 | 21.59992 | -47.32564 | 39050 ft | 554 kts | 76° |
| 2026-04-25 18:36 | 21.61728 | -47.24500 | 39051 ft | 554 kts | 76° |
| 2026-04-25 18:37 | 21.63458 | -47.16438 | 39049 ft | 553 kts | 75° |
| 2026-04-25 18:37 | 21.65186 | -47.08370 | 39050 ft | 553 kts | 75° |
| 2026-04-25 18:38 | 21.66908 | -47.00308 | 39050 ft | 553 kts | 75° |
| 2026-04-25 18:38 | 21.68630 | -46.92225 | 39053 ft | 554 kts | 75° |
| 2026-04-25 18:39 | 21.70337 | -46.84194 | 39053 ft | 554 kts | 75° |
| 2026-04-25 18:39 | 21.72051 | -46.76108 | 39067 ft | 554 kts | 76° |
| 2026-04-25 18:40 | 21.73760 | -46.68028 | 39060 ft | 553 kts | 76° |
| 2026-04-25 18:40 | 21.75453 | -46.60001 | 39056 ft | 553 kts | 76° |
| 2026-04-25 18:41 | 21.77151 | -46.51932 | 39054 ft | 553 kts | 76° |
| 2026-04-25 18:41 | 21.78844 | -46.43865 | 39057 ft | 553 kts | 76° |
| 2026-04-25 18:42 | 21.79966 | -46.38506 | 39060 ft | 553 kts | 76° |
| 2026-04-25 18:42 | 21.82216 | -46.27736 | 39065 ft | 553 kts | 76° |
| 2026-04-25 18:43 | 21.83903 | -46.19633 | 39061 ft | 553 kts | 76° |
| 2026-04-25 18:43 | 21.85585 | -46.11539 | 39062 ft | 553 kts | 76° |
| 2026-04-25 18:44 | 21.87250 | -46.03501 | 39062 ft | 553 kts | 76° |
| 2026-04-25 18:44 | 21.88922 | -45.95412 | 39054 ft | 553 kts | 76° |
| 2026-04-25 18:45 | 21.90590 | -45.87316 | 39079 ft | 553 kts | 76° |
| 2026-04-25 18:45 | 21.92254 | -45.79222 | 39062 ft | 554 kts | 76° |
| 2026-04-25 18:46 | 21.93907 | -45.71164 | 39062 ft | 553 kts | 76° |
| 2026-04-25 18:46 | 21.95563 | -45.63064 | 39065 ft | 553 kts | 76° |
| 2026-04-25 18:47 | 21.97213 | -45.54974 | 39065 ft | 553 kts | 76° |
| 2026-04-25 18:47 | 21.98858 | -45.46888 | 39065 ft | 552 kts | 76° |
| 2026-04-25 18:48 | 22.00503 | -45.38782 | 39060 ft | 553 kts | 76° |
| 2026-04-25 18:48 | 22.02145 | -45.30668 | 39063 ft | 554 kts | 76° |
| 2026-04-25 18:49 | 22.03786 | -45.22539 | 39063 ft | 554 kts | 76° |
| 2026-04-25 18:49 | 22.05408 | -45.14478 | 39059 ft | 553 kts | 76° |
| 2026-04-25 18:50 | 22.07034 | -45.06378 | 39066 ft | 553 kts | 76° |
| 2026-04-25 18:50 | 22.08659 | -44.98263 | 39075 ft | 554 kts | 76° |
| 2026-04-25 18:51 | 22.09744 | -44.92833 | 39072 ft | 555 kts | 76° |
| 2026-04-25 18:51 | 22.11905 | -44.81982 | 39068 ft | 554 kts | 76° |
| 2026-04-25 18:52 | 22.13513 | -44.73883 | 39064 ft | 553 kts | 76° |
| 2026-04-25 18:52 | 22.15112 | -44.65808 | 39065 ft | 554 kts | 76° |
| 2026-04-25 18:53 | 22.16719 | -44.57674 | 39074 ft | 554 kts | 76° |
| 2026-04-25 18:53 | 22.18324 | -44.49524 | 39071 ft | 555 kts | 76° |
| 2026-04-25 18:54 | 22.20457 | -44.38662 | 39074 ft | 555 kts | 76° |
| 2026-04-25 18:55 | 22.22054 | -44.30501 | 39069 ft | 556 kts | 76° |
| 2026-04-25 18:55 | 22.23647 | -44.22338 | 39077 ft | 556 kts | 76° |
| 2026-04-25 18:56 | 22.25233 | -44.14192 | 39074 ft | 557 kts | 76° |
| 2026-04-25 18:56 | 22.26821 | -44.06007 | 39072 ft | 557 kts | 76° |
| 2026-04-25 18:57 | 22.28407 | -43.97810 | 39076 ft | 558 kts | 76° |
| 2026-04-25 18:57 | 22.29986 | -43.89630 | 39075 ft | 559 kts | 76° |
| 2026-04-25 18:58 | 22.31566 | -43.81420 | 39072 ft | 559 kts | 76° |
| 2026-04-25 18:58 | 22.33107 | -43.73375 | 39079 ft | 540 kts | 76° |
| 2026-04-25 18:58 | 22.33874 | -43.69352 | 39080 ft | 524 kts | 76° |
| 2026-04-25 18:59 | 22.35301 | -43.61864 | 39082 ft | 493 kts | 76° |
| 2026-04-25 18:59 | 22.36637 | -43.54840 | 39080 ft | 461 kts | 76° |
| 2026-04-25 19:00 | 22.37880 | -43.48291 | 39096 ft | 433 kts | 76° |
| 2026-04-25 19:00 | 22.38487 | -43.45107 | 39082 ft | 432 kts | 76° |
| 2026-04-25 19:01 | 22.40286 | -43.35653 | 39076 ft | 427 kts | 75° |
| 2026-04-25 19:01 | 22.41469 | -43.29398 | 39075 ft | 423 kts | 75° |
| 2026-04-25 19:02 | 22.43220 | -43.20105 | 39076 ft | 416 kts | 76° |
| 2026-04-25 19:02 | 22.43797 | -43.17034 | 38933 ft | 420 kts | 76° |
| 2026-04-25 19:03 | 22.44763 | -43.11895 | 38873 ft | 417 kts | 76° |
| 2026-04-25 19:03 | 22.46104 | -43.04740 | 38679 ft | 419 kts | 76° |
| 2026-04-25 19:04 | 22.47284 | -42.98484 | 37459 ft | 453 kts | 76° |
| 2026-04-25 19:04 | 22.47946 | -42.94995 | 36240 ft | 492 kts | 76° |
| 2026-04-25 19:05 | 22.49368 | -42.87383 | 35284 ft | 530 kts | 76° |
| 2026-04-25 19:05 | 22.50820 | -42.79482 | 35480 ft | 539 kts | 76° |
| 2026-04-25 19:06 | 22.52289 | -42.71500 | 35666 ft | 547 kts | 76° |
| 2026-04-25 19:06 | 22.53786 | -42.63376 | 35857 ft | 555 kts | 76° |
| 2026-04-25 19:06 | 22.54546 | -42.59252 | 35965 ft | 558 kts | 76° |
| 2026-04-25 19:07 | 22.56061 | -42.51007 | 36206 ft | 563 kts | 76° |
| 2026-04-25 19:07 | 22.56822 | -42.46850 | 36427 ft | 563 kts | 76° |
| 2026-04-25 19:08 | 22.58342 | -42.38534 | 36875 ft | 563 kts | 76° |
| 2026-04-25 19:08 | 22.59101 | -42.34372 | 37081 ft | 563 kts | 76° |
| 2026-04-25 19:09 | 22.61369 | -42.21904 | 37727 ft | 562 kts | 76° |
| 2026-04-25 19:09 | 22.61870 | -42.19145 | 37867 ft | 562 kts | 76° |
| 2026-04-25 19:09 | 22.63618 | -42.09485 | 38332 ft | 561 kts | 76° |
| 2026-04-25 19:11 | 22.64710 | -42.03438 | 38589 ft | 561 kts | 76° |
| 2026-04-25 19:11 | 22.65458 | -41.99288 | 38755 ft | 560 kts | 76° |
| 2026-04-25 19:11 | 22.66203 | -41.95144 | 38901 ft | 560 kts | 76° |
| 2026-04-25 19:11 | 22.66948 | -41.90996 | 39045 ft | 560 kts | 76° |
| 2026-04-25 19:12 | 22.67681 | -41.86909 | 39086 ft | 560 kts | 76° |
| 2026-04-25 19:12 | 22.69163 | -41.78628 | 39089 ft | 559 kts | 76° |
| 2026-04-25 19:13 | 22.70643 | -41.70332 | 39089 ft | 559 kts | 76° |
| 2026-04-25 19:13 | 22.72105 | -41.62107 | 39089 ft | 559 kts | 76° |
| 2026-04-25 19:14 | 22.73572 | -41.53831 | 39089 ft | 559 kts | 76° |
| 2026-04-25 19:14 | 22.75036 | -41.45548 | 39089 ft | 559 kts | 76° |
| 2026-04-25 19:15 | 22.76492 | -41.37278 | 39091 ft | 558 kts | 76° |
| 2026-04-25 19:15 | 22.77945 | -41.29005 | 39092 ft | 559 kts | 76° |
| 2026-04-25 19:16 | 22.79395 | -41.20720 | 39096 ft | 559 kts | 76° |
| 2026-04-25 19:16 | 22.80840 | -41.12439 | 39094 ft | 558 kts | 76° |
| 2026-04-25 19:17 | 22.82272 | -41.04208 | 39097 ft | 558 kts | 76° |
| 2026-04-25 19:17 | 22.83710 | -40.95913 | 39097 ft | 559 kts | 76° |
| 2026-04-25 19:18 | 22.85141 | -40.87637 | 39095 ft | 559 kts | 76° |
| 2026-04-25 19:18 | 22.86570 | -40.79339 | 39094 ft | 559 kts | 76° |
| 2026-04-25 19:19 | 22.87985 | -40.71099 | 39096 ft | 559 kts | 76° |
| 2026-04-25 19:19 | 22.89412 | -40.62769 | 39096 ft | 564 kts | 76° |
| 2026-04-25 19:20 | 22.90852 | -40.54337 | 39100 ft | 569 kts | 76° |
| 2026-04-25 19:20 | 22.92282 | -40.45929 | 39101 ft | 572 kts | 76° |
| 2026-04-25 19:21 | 22.93726 | -40.37404 | 39096 ft | 574 kts | 76° |
| 2026-04-25 19:21 | 22.95877 | -40.24655 | 39102 ft | 575 kts | 76° |
| 2026-04-25 19:22 | 22.97314 | -40.16104 | 39099 ft | 576 kts | 76° |
| 2026-04-25 19:23 | 22.99337 | -40.03243 | 39094 ft | 578 kts | 83° |
| 2026-04-25 19:23 | 22.98693 | -39.94545 | 39089 ft | 583 kts | 102° |
| 2026-04-25 19:23 | 22.97802 | -39.90247 | 39095 ft | 582 kts | 104° |
| 2026-04-25 19:24 | 22.95783 | -39.81738 | 39100 ft | 581 kts | 105° |
| 2026-04-25 19:25 | 22.91639 | -39.64755 | 39102 ft | 582 kts | 105° |
| 2026-04-25 19:25 | 22.89618 | -39.56296 | 39110 ft | 583 kts | 104° |
| 2026-04-25 19:26 | 22.87583 | -39.47772 | 39079 ft | 584 kts | 104° |
| 2026-04-25 19:26 | 22.85544 | -39.39259 | 39102 ft | 582 kts | 104° |
| 2026-04-25 19:27 | 22.84192 | -39.33631 | 39108 ft | 582 kts | 104° |
| 2026-04-25 19:27 | 22.81464 | -39.22310 | 39102 ft | 582 kts | 104° |
| 2026-04-25 19:28 | 22.79408 | -39.13804 | 39100 ft | 582 kts | 104° |
| 2026-04-25 19:28 | 22.77350 | -39.05308 | 39103 ft | 583 kts | 104° |
| 2026-04-25 19:29 | 22.75285 | -38.96805 | 39102 ft | 582 kts | 105° |
| 2026-04-25 19:29 | 22.73232 | -38.88373 | 39105 ft | 581 kts | 105° |
| 2026-04-25 19:30 | 22.71168 | -38.79914 | 39105 ft | 581 kts | 105° |
| 2026-04-25 19:30 | 22.69092 | -38.71430 | 39105 ft | 581 kts | 105° |
| 2026-04-25 19:31 | 22.67014 | -38.62954 | 39108 ft | 582 kts | 105° |
| 2026-04-25 19:31 | 22.64931 | -38.54482 | 39105 ft | 582 kts | 105° |
| 2026-04-25 19:32 | 22.62857 | -38.46067 | 39103 ft | 581 kts | 105° |
| 2026-04-25 19:32 | 22.61462 | -38.40420 | 39108 ft | 581 kts | 105° |
| 2026-04-25 19:33 | 22.58679 | -38.29177 | 39105 ft | 581 kts | 105° |
| 2026-04-25 19:33 | 22.56580 | -38.20719 | 39105 ft | 581 kts | 105° |
| 2026-04-25 19:34 | 22.54477 | -38.12269 | 39106 ft | 582 kts | 105° |
| 2026-04-25 19:34 | 22.52367 | -38.03809 | 39107 ft | 582 kts | 105° |
| 2026-04-25 19:35 | 22.50264 | -37.95401 | 39113 ft | 582 kts | 105° |
| 2026-04-25 19:35 | 22.48142 | -37.86935 | 39105 ft | 583 kts | 105° |
| 2026-04-25 19:36 | 22.46016 | -37.78470 | 39108 ft | 583 kts | 105° |
| 2026-04-25 19:36 | 22.43895 | -37.70051 | 39114 ft | 583 kts | 105° |
| 2026-04-25 19:37 | 22.41758 | -37.61582 | 39105 ft | 584 kts | 105° |
| 2026-04-25 19:37 | 22.39612 | -37.53104 | 39098 ft | 584 kts | 105° |
| 2026-04-25 19:38 | 22.37468 | -37.44649 | 39112 ft | 583 kts | 105° |
| 2026-04-25 19:38 | 22.35681 | -37.37617 | 39108 ft | 583 kts | 105° |
| 2026-04-25 19:39 | 22.33528 | -37.29165 | 39108 ft | 583 kts | 105° |
| 2026-04-25 19:39 | 22.31017 | -37.19334 | 39112 ft | 584 kts | 105° |
| 2026-04-25 19:40 | 22.29215 | -37.12292 | 39108 ft | 585 kts | 105° |
| 2026-04-25 19:40 | 22.27041 | -37.03817 | 39102 ft | 584 kts | 105° |
| 2026-04-25 19:41 | 22.24868 | -36.95367 | 39109 ft | 583 kts | 105° |
| 2026-04-25 19:41 | 22.23061 | -36.88354 | 39108 ft | 584 kts | 105° |
| 2026-04-25 19:42 | 22.20514 | -36.78490 | 39110 ft | 584 kts | 105° |
| 2026-04-25 19:42 | 22.18325 | -36.70037 | 39109 ft | 584 kts | 105° |
| 2026-04-25 19:43 | 22.16131 | -36.61582 | 39108 ft | 585 kts | 105° |
| 2026-04-25 19:43 | 22.13936 | -36.53142 | 39099 ft | 584 kts | 105° |
| 2026-04-25 19:44 | 22.11751 | -36.44761 | 39108 ft | 583 kts | 105° |
| 2026-04-25 19:44 | 22.09552 | -36.36343 | 39108 ft | 583 kts | 105° |
| 2026-04-25 19:45 | 22.07347 | -36.27922 | 39108 ft | 582 kts | 105° |
| 2026-04-25 19:45 | 22.05136 | -36.19499 | 39108 ft | 583 kts | 105° |
| 2026-04-25 19:46 | 22.02937 | -36.11140 | 39110 ft | 583 kts | 105° |
| 2026-04-25 19:46 | 22.00718 | -36.02724 | 39100 ft | 583 kts | 105° |
| 2026-04-25 19:47 | 21.98334 | -35.94383 | 39109 ft | 582 kts | 110° |
| 2026-04-25 19:47 | 21.95382 | -35.86257 | 39107 ft | 582 kts | 112° |
| 2026-04-25 19:48 | 21.92366 | -35.78161 | 39108 ft | 582 kts | 112° |
| 2026-04-25 19:48 | 21.89457 | -35.70085 | 39109 ft | 582 kts | 111° |
| 2026-04-25 19:49 | 21.87035 | -35.63234 | 39105 ft | 583 kts | 111° |
| 2026-04-25 19:49 | 21.83694 | -35.53759 | 39103 ft | 582 kts | 111° |
| 2026-04-25 19:50 | 21.79369 | -35.41551 | 39105 ft | 582 kts | 111° |
| 2026-04-25 19:51 | 21.76491 | -35.33459 | 39105 ft | 582 kts | 111° |
| 2026-04-25 19:51 | 21.73589 | -35.25315 | 39105 ft | 582 kts | 111° |
| 2026-04-25 19:52 | 21.70685 | -35.17174 | 39103 ft | 583 kts | 111° |
| 2026-04-25 19:52 | 21.67780 | -35.09047 | 39103 ft | 582 kts | 111° |
| 2026-04-25 19:53 | 21.64873 | -35.00929 | 39100 ft | 581 kts | 111° |
| 2026-04-25 19:53 | 21.61966 | -34.92826 | 39103 ft | 581 kts | 111° |
| 2026-04-25 19:54 | 21.59057 | -34.84730 | 39101 ft | 582 kts | 111° |
| 2026-04-25 19:54 | 21.56152 | -34.76660 | 39099 ft | 582 kts | 111° |
| 2026-04-25 19:55 | 21.53219 | -34.68527 | 39091 ft | 582 kts | 111° |
| 2026-04-25 19:55 | 21.50289 | -34.60416 | 39105 ft | 581 kts | 111° |
| 2026-04-25 19:56 | 21.47380 | -34.52376 | 39099 ft | 581 kts | 112° |
| 2026-04-25 19:56 | 21.44447 | -34.44283 | 39101 ft | 581 kts | 112° |
| 2026-04-25 19:57 | 21.41503 | -34.36176 | 39102 ft | 582 kts | 112° |
| 2026-04-25 19:57 | 21.38559 | -34.28082 | 39102 ft | 582 kts | 112° |
| 2026-04-25 19:58 | 21.35628 | -34.20039 | 39100 ft | 581 kts | 112° |
| 2026-04-25 19:58 | 21.32680 | -34.11960 | 39099 ft | 581 kts | 112° |
| 2026-04-25 19:59 | 21.29796 | -34.04071 | 39102 ft | 581 kts | 112° |
| 2026-04-25 19:59 | 21.26841 | -33.96003 | 39102 ft | 581 kts | 112° |
| 2026-04-25 20:00 | 21.23882 | -33.87936 | 39107 ft | 581 kts | 112° |
| 2026-04-25 20:00 | 21.20917 | -33.79869 | 39099 ft | 581 kts | 112° |
| 2026-04-25 20:01 | 21.16494 | -33.67855 | 39102 ft | 579 kts | 112° |
| 2026-04-25 20:01 | 21.13514 | -33.59780 | 39096 ft | 579 kts | 112° |
| 2026-04-25 20:02 | 21.10550 | -33.51763 | 39099 ft | 579 kts | 112° |
| 2026-04-25 20:02 | 21.08085 | -33.45102 | 39099 ft | 579 kts | 112° |
| 2026-04-25 20:03 | 21.05063 | -33.36951 | 39096 ft | 579 kts | 112° |
| 2026-04-25 20:03 | 21.02085 | -33.28933 | 39095 ft | 580 kts | 112° |
| 2026-04-25 20:04 | 20.99119 | -33.20960 | 39096 ft | 580 kts | 112° |
| 2026-04-25 20:04 | 20.96130 | -33.12938 | 39093 ft | 580 kts | 112° |
| 2026-04-25 20:05 | 20.93138 | -33.04922 | 39094 ft | 581 kts | 112° |
| 2026-04-25 20:05 | 20.90131 | -32.96880 | 39088 ft | 581 kts | 112° |
| 2026-04-25 20:06 | 20.87127 | -32.88858 | 39100 ft | 581 kts | 112° |
| 2026-04-25 20:06 | 20.84115 | -32.80826 | 39087 ft | 581 kts | 112° |
| 2026-04-25 20:07 | 20.81102 | -32.72808 | 39086 ft | 580 kts | 112° |
| 2026-04-25 20:07 | 20.78092 | -32.64809 | 39090 ft | 580 kts | 112° |
| 2026-04-25 20:08 | 20.75080 | -32.56817 | 39086 ft | 580 kts | 112° |
| 2026-04-25 20:08 | 20.72061 | -32.48821 | 39087 ft | 580 kts | 113° |
| 2026-04-25 20:09 | 20.69037 | -32.40824 | 39094 ft | 581 kts | 113° |
| 2026-04-25 20:09 | 20.66011 | -32.32836 | 39089 ft | 580 kts | 113° |
| 2026-04-25 20:10 | 20.62985 | -32.24859 | 39087 ft | 580 kts | 113° |
| 2026-04-25 20:10 | 20.59957 | -32.16889 | 39084 ft | 579 kts | 113° |
| 2026-04-25 20:11 | 20.56926 | -32.08926 | 39089 ft | 579 kts | 113° |
| 2026-04-25 20:11 | 20.53888 | -32.00957 | 39086 ft | 579 kts | 113° |
| 2026-04-25 20:12 | 20.50847 | -31.92992 | 39085 ft | 579 kts | 113° |
| 2026-04-25 20:12 | 20.48834 | -31.87726 | 39084 ft | 579 kts | 113° |
| 2026-04-25 20:13 | 20.44771 | -31.77116 | 39092 ft | 577 kts | 113° |
| 2026-04-25 20:13 | 20.41706 | -31.69189 | 39085 ft | 577 kts | 115° |
| 2026-04-25 20:14 | 20.38329 | -31.61429 | 39083 ft | 577 kts | 117° |
| 2026-04-25 20:14 | 20.34843 | -31.53739 | 39084 ft | 577 kts | 117° |
| 2026-04-25 20:15 | 20.31393 | -31.46020 | 39078 ft | 577 kts | 117° |
| 2026-04-25 20:15 | 20.28001 | -31.38335 | 39071 ft | 576 kts | 116° |
| 2026-04-25 20:16 | 20.24599 | -31.30609 | 39078 ft | 575 kts | 116° |
| 2026-04-25 20:16 | 20.21177 | -31.22855 | 39078 ft | 575 kts | 116° |
| 2026-04-25 20:17 | 20.17792 | -31.15202 | 39080 ft | 575 kts | 116° |
| 2026-04-25 20:17 | 20.14383 | -31.07508 | 39081 ft | 575 kts | 116° |
| 2026-04-25 20:18 | 20.10968 | -30.99808 | 39077 ft | 575 kts | 116° |
| 2026-04-25 20:18 | 20.07553 | -30.92123 | 39077 ft | 574 kts | 116° |
| 2026-04-25 20:19 | 20.04138 | -30.84448 | 39074 ft | 574 kts | 116° |
| 2026-04-25 20:19 | 20.00719 | -30.76773 | 39086 ft | 574 kts | 116° |
| 2026-04-25 20:20 | 19.97300 | -30.69109 | 39078 ft | 574 kts | 116° |
| 2026-04-25 20:20 | 19.93877 | -30.61447 | 39078 ft | 574 kts | 117° |
| 2026-04-25 20:21 | 19.90449 | -30.53785 | 39075 ft | 574 kts | 117° |
| 2026-04-25 20:21 | 19.87025 | -30.46143 | 39080 ft | 573 kts | 116° |
| 2026-04-25 20:22 | 19.84727 | -30.41020 | 39078 ft | 572 kts | 116° |
| 2026-04-25 20:22 | 19.80750 | -30.32164 | 39070 ft | 572 kts | 117° |
| 2026-04-25 20:23 | 19.77320 | -30.24539 | 39066 ft | 572 kts | 117° |
| 2026-04-25 20:23 | 19.73888 | -30.16918 | 39063 ft | 572 kts | 117° |
| 2026-04-25 20:24 | 19.70450 | -30.09294 | 39070 ft | 572 kts | 117° |
| 2026-04-25 20:24 | 19.67009 | -30.01676 | 39067 ft | 572 kts | 117° |
| 2026-04-25 20:25 | 19.63638 | -29.94221 | 39071 ft | 571 kts | 117° |
| 2026-04-25 20:25 | 19.60201 | -29.86632 | 39071 ft | 571 kts | 117° |
| 2026-04-25 20:26 | 19.56760 | -29.79043 | 39076 ft | 571 kts | 117° |
| 2026-04-25 20:26 | 19.53314 | -29.71454 | 39058 ft | 571 kts | 117° |
| 2026-04-25 20:27 | 19.49865 | -29.63868 | 39072 ft | 571 kts | 117° |
| 2026-04-25 20:27 | 19.46438 | -29.56341 | 39060 ft | 570 kts | 117° |
| 2026-04-25 20:28 | 19.42972 | -29.48736 | 39060 ft | 569 kts | 117° |
| 2026-04-25 20:28 | 19.39545 | -29.41230 | 39058 ft | 569 kts | 117° |
| 2026-04-25 20:29 | 19.37483 | -29.36717 | 39063 ft | 0 kts | 117° |
| 2026-04-25 20:32 | 19.36979 | -29.36411 | 38999 ft | 570 kts | 108° |
| 2026-04-25 20:32 | 19.35620 | -29.32460 | 38495 ft | 573 kts | 113° |
| 2026-04-25 20:33 | 19.34019 | -29.28630 | 38393 ft | 561 kts | 116° |
| 2026-04-25 20:33 | 19.32324 | -29.24954 | 38625 ft | 553 kts | 118° |
| 2026-04-25 20:33 | 19.30593 | -29.21319 | 38874 ft | 551 kts | 118° |
| 2026-04-25 20:33 | 19.29446 | -29.18921 | 39023 ft | 551 kts | 118° |
| 2026-04-25 20:34 | 19.25432 | -29.10402 | 39049 ft | 555 kts | 117° |
| 2026-04-25 20:34 | 19.22057 | -29.03097 | 39059 ft | 551 kts | 117° |
| 2026-04-25 20:35 | 19.18706 | -28.95803 | 39058 ft | 550 kts | 117° |
| 2026-04-25 20:35 | 19.15358 | -28.88523 | 39058 ft | 551 kts | 117° |
| 2026-04-25 20:36 | 19.12001 | -28.81231 | 39057 ft | 552 kts | 117° |
| 2026-04-25 20:36 | 19.08646 | -28.73947 | 39052 ft | 552 kts | 117° |
| 2026-04-25 20:37 | 19.07102 | -28.70600 | 39054 ft | 552 kts | 117° |
| 2026-04-25 20:37 | 19.03761 | -28.63358 | 39053 ft | 552 kts | 117° |
| 2026-04-25 20:38 | 19.00367 | -28.56026 | 39055 ft | 552 kts | 117° |
| 2026-04-25 20:38 | 18.96973 | -28.48754 | 39052 ft | 552 kts | 117° |
| 2026-04-25 20:39 | 18.93583 | -28.41481 | 39055 ft | 552 kts | 117° |
| 2026-04-25 20:39 | 18.90768 | -28.35432 | 39053 ft | 552 kts | 117° |
| 2026-04-25 20:40 | 18.86834 | -28.26981 | 39049 ft | 552 kts | 117° |
| 2026-04-25 20:40 | 18.83422 | -28.19661 | 39050 ft | 552 kts | 117° |
| 2026-04-25 20:41 | 18.80055 | -28.12448 | 39043 ft | 550 kts | 117° |
| 2026-04-25 20:41 | 18.76683 | -28.05231 | 39049 ft | 548 kts | 117° |
| 2026-04-25 20:42 | 18.73311 | -27.98026 | 39052 ft | 548 kts | 117° |
| 2026-04-25 20:42 | 18.69939 | -27.90830 | 39046 ft | 548 kts | 117° |
| 2026-04-25 20:43 | 18.66638 | -27.83791 | 39044 ft | 548 kts | 117° |
| 2026-04-25 20:43 | 18.63256 | -27.76589 | 39043 ft | 548 kts | 118° |
| 2026-04-25 20:44 | 18.59873 | -27.69396 | 39041 ft | 548 kts | 118° |
| 2026-04-25 20:44 | 18.56492 | -27.62212 | 39039 ft | 546 kts | 118° |
| 2026-04-25 20:45 | 18.53120 | -27.55056 | 39043 ft | 545 kts | 118° |
| 2026-04-25 20:45 | 18.49734 | -27.47882 | 39061 ft | 536 kts | 118° |
| 2026-04-25 20:46 | 18.48124 | -27.44467 | 39052 ft | 520 kts | 118° |
| 2026-04-25 20:46 | 18.46536 | -27.41101 | 39051 ft | 506 kts | 118° |
| 2026-04-25 20:46 | 18.43432 | -27.34536 | 39040 ft | 500 kts | 118° |
| 2026-04-25 20:47 | 18.40323 | -27.27979 | 39038 ft | 501 kts | 118° |
| 2026-04-25 20:47 | 18.37206 | -27.21406 | 39038 ft | 502 kts | 118° |
| 2026-04-25 20:48 | 18.34085 | -27.14828 | 39036 ft | 502 kts | 118° |
| 2026-04-25 20:48 | 18.30921 | -27.08172 | 39030 ft | 516 kts | 118° |
| 2026-04-25 20:49 | 18.27678 | -27.01355 | 39031 ft | 523 kts | 118° |
| 2026-04-25 20:49 | 18.24423 | -26.94514 | 39032 ft | 522 kts | 118° |
| 2026-04-25 20:50 | 18.21176 | -26.87699 | 39035 ft | 522 kts | 118° |
| 2026-04-25 20:50 | 18.17919 | -26.80871 | 39031 ft | 522 kts | 118° |
| 2026-04-25 20:51 | 18.14664 | -26.74057 | 39034 ft | 521 kts | 118° |
| 2026-04-25 20:51 | 18.11408 | -26.67248 | 39031 ft | 521 kts | 118° |
| 2026-04-25 20:52 | 18.08706 | -26.61602 | 39025 ft | 519 kts | 118° |
| 2026-04-25 20:52 | 18.04913 | -26.53687 | 39026 ft | 519 kts | 118° |
| 2026-04-25 20:53 | 18.01663 | -26.46913 | 39027 ft | 519 kts | 118° |
| 2026-04-25 20:53 | 17.98459 | -26.40243 | 39023 ft | 519 kts | 118° |
| 2026-04-25 20:54 | 17.95161 | -26.33384 | 39024 ft | 519 kts | 118° |
| 2026-04-25 20:54 | 17.91907 | -26.26624 | 39023 ft | 519 kts | 118° |
| 2026-04-25 20:55 | 17.88648 | -26.19859 | 39009 ft | 519 kts | 118° |
| 2026-04-25 20:55 | 17.85394 | -26.13114 | 39016 ft | 518 kts | 118° |
| 2026-04-25 20:56 | 17.82134 | -26.06363 | 39017 ft | 517 kts | 118° |
| 2026-04-25 20:56 | 17.78866 | -25.99635 | 39018 ft | 517 kts | 120° |
| 2026-04-25 20:57 | 17.75433 | -25.93009 | 39020 ft | 517 kts | 121° |
| 2026-04-25 20:57 | 17.71945 | -25.86417 | 39017 ft | 517 kts | 121° |
| 2026-04-25 20:58 | 17.68468 | -25.79798 | 39018 ft | 518 kts | 121° |
| 2026-04-25 20:58 | 17.65033 | -25.73220 | 39003 ft | 518 kts | 121° |
| 2026-04-25 20:59 | 17.61584 | -25.66610 | 39016 ft | 516 kts | 121° |
| 2026-04-25 20:59 | 17.58137 | -25.60009 | 39015 ft | 516 kts | 121° |
| 2026-04-25 21:00 | 17.55831 | -25.55602 | 39018 ft | 516 kts | 121° |
| 2026-04-25 21:01 | 17.49504 | -25.43521 | 39019 ft | 516 kts | 121° |
| 2026-04-25 21:01 | 17.46049 | -25.36932 | 39018 ft | 516 kts | 121° |
| 2026-04-25 21:02 | 17.42597 | -25.30357 | 39017 ft | 516 kts | 121° |
| 2026-04-25 21:02 | 17.39137 | -25.23772 | 39020 ft | 516 kts | 121° |
| 2026-04-25 21:03 | 17.35679 | -25.17198 | 39019 ft | 514 kts | 121° |
| 2026-04-25 21:03 | 17.32235 | -25.10658 | 39018 ft | 514 kts | 121° |
| 2026-04-25 21:04 | 17.28771 | -25.04086 | 39013 ft | 514 kts | 121° |
| 2026-04-25 21:04 | 17.25321 | -24.97548 | 39016 ft | 513 kts | 121° |
| 2026-04-25 21:05 | 17.21871 | -24.91014 | 39015 ft | 513 kts | 121° |
| 2026-04-25 21:05 | 17.18411 | -24.84470 | 39013 ft | 513 kts | 121° |
| 2026-04-25 21:06 | 17.14955 | -24.77938 | 39000 ft | 513 kts | 121° |
| 2026-04-25 21:06 | 17.11524 | -24.71459 | 39010 ft | 512 kts | 121° |
| 2026-04-25 21:07 | 17.08075 | -24.64955 | 38998 ft | 512 kts | 121° |
| 2026-04-25 21:07 | 17.04619 | -24.58443 | 38999 ft | 512 kts | 121° |
| 2026-04-25 21:08 | 17.01745 | -24.53032 | 38999 ft | 512 kts | 121° |
| 2026-04-25 21:08 | 16.98285 | -24.46524 | 38977 ft | 512 kts | 121° |
| 2026-04-25 21:09 | 16.93091 | -24.36766 | 38984 ft | 512 kts | 121° |
| 2026-04-25 21:09 | 16.89625 | -24.30263 | 38982 ft | 513 kts | 121° |
| 2026-04-25 21:10 | 16.86164 | -24.23776 | 38986 ft | 513 kts | 121° |
| 2026-04-25 21:10 | 16.82680 | -24.17250 | 38989 ft | 513 kts | 121° |
| 2026-04-25 21:11 | 16.79204 | -24.10746 | 38991 ft | 513 kts | 121° |
| 2026-04-25 21:11 | 16.75731 | -24.04255 | 38991 ft | 513 kts | 121° |
| 2026-04-25 21:12 | 16.72253 | -23.97761 | 38999 ft | 513 kts | 121° |
| 2026-04-25 21:12 | 16.69327 | -23.92301 | 38997 ft | 513 kts | 121° |
| 2026-04-25 21:13 | 16.65280 | -23.84757 | 38986 ft | 513 kts | 121° |
| 2026-04-25 21:13 | 16.61790 | -23.78257 | 38988 ft | 513 kts | 121° |
| 2026-04-25 21:14 | 16.58307 | -23.71778 | 38983 ft | 513 kts | 121° |
| 2026-04-25 21:14 | 16.54816 | -23.65288 | 38982 ft | 513 kts | 121° |
| 2026-04-25 21:15 | 16.51319 | -23.58795 | 38976 ft | 513 kts | 121° |
| 2026-04-25 21:15 | 16.47821 | -23.52306 | 38977 ft | 513 kts | 121° |
| 2026-04-25 21:16 | 16.44326 | -23.45828 | 38973 ft | 513 kts | 121° |
| 2026-04-25 21:16 | 16.40827 | -23.39349 | 38974 ft | 513 kts | 121° |
| 2026-04-25 21:17 | 16.37328 | -23.32875 | 38959 ft | 513 kts | 121° |
| 2026-04-25 21:17 | 16.33856 | -23.26456 | 38968 ft | 511 kts | 122° |
| 2026-04-25 21:18 | 16.30377 | -23.20031 | 38971 ft | 509 kts | 122° |
| 2026-04-25 21:18 | 16.26897 | -23.13612 | 38972 ft | 509 kts | 122° |
| 2026-04-25 21:19 | 16.23415 | -23.07195 | 38974 ft | 509 kts | 122° |
| 2026-04-25 21:20 | 16.20878 | -23.02521 | 38975 ft | 509 kts | 122° |
| 2026-04-25 21:20 | 16.16805 | -22.95026 | 38959 ft | 509 kts | 122° |
| 2026-04-25 21:21 | 16.13317 | -22.88613 | 38962 ft | 509 kts | 122° |
| 2026-04-25 21:21 | 16.09871 | -22.82183 | 38954 ft | 509 kts | 121° |
| 2026-04-25 21:22 | 16.06476 | -22.75752 | 38965 ft | 506 kts | 121° |
| 2026-04-25 21:22 | 16.03079 | -22.69334 | 38974 ft | 505 kts | 121° |
| 2026-04-25 21:23 | 15.99683 | -22.62945 | 38973 ft | 505 kts | 121° |
| 2026-04-25 21:23 | 15.96279 | -22.56554 | 38973 ft | 505 kts | 121° |
| 2026-04-25 21:24 | 15.92871 | -22.50162 | 38974 ft | 505 kts | 121° |
| 2026-04-25 21:24 | 15.89462 | -22.43771 | 38973 ft | 505 kts | 121° |
| 2026-04-25 21:25 | 15.86057 | -22.37396 | 38970 ft | 506 kts | 121° |
| 2026-04-25 21:25 | 15.82642 | -22.31006 | 38968 ft | 505 kts | 121° |
| 2026-04-25 21:26 | 15.79235 | -22.24634 | 38972 ft | 504 kts | 121° |
| 2026-04-25 21:26 | 15.75835 | -22.18283 | 38972 ft | 503 kts | 121° |
| 2026-04-25 21:27 | 15.72433 | -22.11935 | 38971 ft | 503 kts | 121° |
| 2026-04-25 21:27 | 15.69034 | -22.05598 | 38965 ft | 503 kts | 121° |
| 2026-04-25 21:28 | 15.65654 | -21.99302 | 38969 ft | 503 kts | 121° |
| 2026-04-25 21:28 | 15.62224 | -21.92917 | 38969 ft | 503 kts | 121° |
| 2026-04-25 21:29 | 15.58820 | -21.86587 | 38965 ft | 503 kts | 121° |
| 2026-04-25 21:29 | 15.55407 | -21.80244 | 38967 ft | 503 kts | 121° |
| 2026-04-25 21:30 | 15.52022 | -21.73960 | 38966 ft | 502 kts | 122° |
| 2026-04-25 21:30 | 15.49169 | -21.68668 | 38966 ft | 501 kts | 122° |
| 2026-04-25 21:31 | 15.45215 | -21.61339 | 38960 ft | 501 kts | 122° |
| 2026-04-25 21:31 | 15.41811 | -21.55035 | 38960 ft | 501 kts | 122° |
| 2026-04-25 21:32 | 15.38381 | -21.48688 | 38956 ft | 501 kts | 122° |
| 2026-04-25 21:32 | 15.35004 | -21.42446 | 38952 ft | 501 kts | 122° |
| 2026-04-25 21:33 | 15.31585 | -21.36131 | 38960 ft | 501 kts | 122° |
| 2026-04-25 21:33 | 15.28179 | -21.29844 | 38952 ft | 501 kts | 122° |
| 2026-04-25 21:34 | 15.24773 | -21.23563 | 38958 ft | 499 kts | 122° |
| 2026-04-25 21:34 | 15.21374 | -21.17301 | 38958 ft | 499 kts | 122° |
| 2026-04-25 21:35 | 15.17976 | -21.11046 | 38955 ft | 498 kts | 122° |
| 2026-04-25 21:35 | 15.14575 | -21.04790 | 38955 ft | 498 kts | 122° |
| 2026-04-25 21:36 | 15.11173 | -20.98537 | 38952 ft | 498 kts | 122° |
| 2026-04-25 21:36 | 15.07771 | -20.92290 | 38952 ft | 498 kts | 122° |
| 2026-04-25 21:37 | 15.04922 | -20.87062 | 38950 ft | 498 kts | 122° |
| 2026-04-25 21:37 | 15.00963 | -20.79805 | 38952 ft | 498 kts | 122° |
| 2026-04-25 21:38 | 14.97558 | -20.73566 | 38946 ft | 497 kts | 122° |
| 2026-04-25 21:38 | 14.94160 | -20.67347 | 38947 ft | 496 kts | 122° |
| 2026-04-25 21:39 | 14.90760 | -20.61129 | 38944 ft | 496 kts | 122° |
| 2026-04-25 21:39 | 14.87362 | -20.54920 | 38944 ft | 496 kts | 122° |
| 2026-04-25 21:40 | 14.83993 | -20.48767 | 38944 ft | 496 kts | 122° |
| 2026-04-25 21:40 | 14.80590 | -20.42560 | 38941 ft | 496 kts | 122° |
| 2026-04-25 21:41 | 14.77182 | -20.36347 | 38941 ft | 496 kts | 122° |
| 2026-04-25 21:41 | 14.73781 | -20.30152 | 38941 ft | 496 kts | 122° |
| 2026-04-25 21:42 | 14.70381 | -20.23963 | 38931 ft | 495 kts | 122° |
| 2026-04-25 21:42 | 14.67639 | -20.17435 | 38936 ft | 497 kts | 111° |
| 2026-04-25 21:43 | 14.65420 | -20.10674 | 38940 ft | 497 kts | 109° |
| 2026-04-25 21:43 | 14.63284 | -20.03899 | 38933 ft | 497 kts | 109° |
| 2026-04-25 21:44 | 14.61133 | -19.97115 | 38936 ft | 496 kts | 110° |
| 2026-04-25 21:45 | 14.57883 | -19.86975 | 38929 ft | 496 kts | 110° |
| 2026-04-25 21:45 | 14.55819 | -19.80167 | 38930 ft | 498 kts | 103° |
| 2026-04-25 21:46 | 14.55019 | -19.73079 | 38935 ft | 498 kts | 94° |
| 2026-04-25 21:46 | 14.54579 | -19.65946 | 38927 ft | 498 kts | 94° |
| 2026-04-25 21:47 | 14.54151 | -19.58815 | 38929 ft | 498 kts | 94° |
| 2026-04-25 21:47 | 14.53725 | -19.51729 | 38927 ft | 498 kts | 94° |
| 2026-04-25 21:48 | 14.53294 | -19.44597 | 38927 ft | 498 kts | 94° |
| 2026-04-25 21:48 | 14.53222 | -19.43396 | 38926 ft | 498 kts | 94° |
| 2026-04-25 21:49 | 14.52848 | -19.37234 | 38923 ft | 497 kts | 94° |
| 2026-04-25 21:49 | 14.52413 | -19.30109 | 38922 ft | 497 kts | 94° |
| 2026-04-25 21:50 | 14.51977 | -19.22994 | 38919 ft | 497 kts | 94° |
| 2026-04-25 21:50 | 14.51538 | -19.15867 | 38919 ft | 497 kts | 94° |
| 2026-04-25 21:50 | 14.51390 | -19.13479 | 38793 ft | 493 kts | 94° |
| 2026-04-25 21:51 | 14.51100 | -19.08784 | 37690 ft | 498 kts | 94° |
| 2026-04-25 21:51 | 14.50876 | -19.05185 | 36680 ft | 506 kts | 94° |
| 2026-04-25 21:51 | 14.50649 | -19.01546 | 35789 ft | 511 kts | 94° |
| 2026-04-25 21:51 | 14.50419 | -18.97866 | 34974 ft | 515 kts | 93° |
| 2026-04-25 21:52 | 14.50189 | -18.94179 | 34310 ft | 515 kts | 93° |
| 2026-04-25 21:52 | 14.49958 | -18.90499 | 33721 ft | 512 kts | 93° |
| 2026-04-25 21:52 | 14.49728 | -18.86848 | 33179 ft | 507 kts | 93° |
| 2026-04-25 21:52 | 14.49499 | -18.83237 | 32701 ft | 501 kts | 92° |
| 2026-04-25 21:53 | 14.49273 | -18.79664 | 32162 ft | 497 kts | 92° |
| 2026-04-25 21:53 | 14.49049 | -18.76119 | 31605 ft | 493 kts | 92° |
| 2026-04-25 21:53 | 14.48825 | -18.72600 | 31100 ft | 489 kts | 92° |
| 2026-04-25 21:53 | 14.48602 | -18.69110 | 30589 ft | 485 kts | 92° |
| 2026-04-25 21:54 | 14.48456 | -18.66814 | 30263 ft | 483 kts | 91° |
| 2026-04-25 21:54 | 14.48233 | -18.63331 | 29724 ft | 479 kts | 91° |
| 2026-04-25 21:54 | 14.48017 | -18.59958 | 29173 ft | 475 kts | 91° |
| 2026-04-25 21:54 | 14.47801 | -18.56580 | 28647 ft | 470 kts | 91° |
| 2026-04-25 21:55 | 14.47585 | -18.53228 | 28133 ft | 465 kts | 91° |
| 2026-04-25 21:55 | 14.47372 | -18.49920 | 27636 ft | 461 kts | 92° |
| 2026-04-25 21:55 | 14.47160 | -18.46637 | 27134 ft | 456 kts | 92° |
| 2026-04-25 21:55 | 14.46949 | -18.43384 | 26636 ft | 452 kts | 92° |
| 2026-04-25 21:56 | 14.46740 | -18.40160 | 26136 ft | 448 kts | 92° |
| 2026-04-25 21:56 | 14.46602 | -18.38033 | 25799 ft | 446 kts | 92° |
| 2026-04-25 21:56 | 14.46326 | -18.33792 | 25150 ft | 441 kts | 92° |
| 2026-04-25 21:56 | 14.46121 | -18.30654 | 24641 ft | 438 kts | 92° |
| 2026-04-25 21:57 | 14.45917 | -18.27532 | 24142 ft | 435 kts | 92° |
| 2026-04-25 21:57 | 14.45714 | -18.24431 | 23691 ft | 430 kts | 93° |
| 2026-04-25 21:57 | 14.45512 | -18.21363 | 23091 ft | 429 kts | 93° |
| 2026-04-25 21:57 | 14.45311 | -18.18307 | 22441 ft | 427 kts | 93° |
| 2026-04-25 21:58 | 14.45109 | -18.15228 | 21468 ft | 433 kts | 93° |
| 2026-04-25 21:58 | 14.44901 | -18.12084 | 20166 ft | 447 kts | 94° |
| 2026-04-25 21:58 | 14.44686 | -18.08825 | 18798 ft | 463 kts | 94° |
| 2026-04-25 21:58 | 14.44465 | -18.05495 | 17759 ft | 467 kts | 94° |
| 2026-04-25 21:59 | 14.44197 | -18.02165 | 16868 ft | 463 kts | 99° |
| 2026-04-25 21:59 | 14.43589 | -17.98924 | 16077 ft | 457 kts | 98° |
| 2026-04-25 21:59 | 14.43452 | -17.95678 | 15480 ft | 448 kts | 91° |
| 2026-04-25 22:00 | 14.43262 | -17.89497 | 14901 ft | 415 kts | 93° |
| 2026-04-25 22:00 | 14.43117 | -17.86578 | 14642 ft | 400 kts | 94° |
| 2026-04-25 22:00 | 14.42956 | -17.83760 | 14415 ft | 386 kts | 94° |
| 2026-04-25 22:00 | 14.42790 | -17.81051 | 14087 ft | 376 kts | 95° |
| 2026-04-25 22:01 | 14.42619 | -17.78374 | 13563 ft | 373 kts | 95° |
| 2026-04-25 22:01 | 14.42445 | -17.75726 | 13101 ft | 366 kts | 95° |
| 2026-04-25 22:01 | 14.42272 | -17.73122 | 12584 ft | 362 kts | 96° |
| 2026-04-25 22:01 | 14.42158 | -17.71416 | 12202 ft | 360 kts | 96° |
| 2026-04-25 22:02 | 14.41928 | -17.68003 | 11569 ft | 353 kts | 95° |
| 2026-04-25 22:02 | 14.41759 | -17.65503 | 11104 ft | 347 kts | 96° |
| 2026-04-25 22:02 | 14.41591 | -17.63025 | 10590 ft | 344 kts | 96° |
| 2026-04-25 22:02 | 14.41427 | -17.60610 | 10354 ft | 331 kts | 96° |
| 2026-04-25 22:03 | 14.41270 | -17.58289 | 10139 ft | 318 kts | 96° |
| 2026-04-25 22:03 | 14.41118 | -17.56059 | 9717 ft | 314 kts | 97° |
| 2026-04-25 22:03 | 14.40961 | -17.53790 | 9215 ft | 312 kts | 96° |
| 2026-04-25 22:03 | 14.40809 | -17.51592 | 8525 ft | 315 kts | 95° |
| 2026-04-25 22:04 | 14.40648 | -17.49276 | 7467 ft | 330 kts | 94° |
| 2026-04-25 22:04 | 14.40482 | -17.46863 | 6362 ft | 346 kts | 93° |
| 2026-04-25 22:04 | 14.40311 | -17.44381 | 5727 ft | 343 kts | 92° |
| 2026-04-25 22:04 | 14.40144 | -17.41980 | 5450 ft | 327 kts | 92° |
| 2026-04-25 22:05 | 14.39984 | -17.39692 | 5231 ft | 312 kts | 91° |
| 2026-04-25 22:05 | 14.39833 | -17.37513 | 5025 ft | 298 kts | 91° |
| 2026-04-25 22:05 | 14.39689 | -17.35434 | 4824 ft | 285 kts | 91° |
| 2026-04-25 22:05 | 14.39641 | -17.34755 | 4735 ft | 282 kts | 91° |
| 2026-04-25 22:06 | 14.39500 | -17.32705 | 4396 ft | 275 kts | 90° |
| 2026-04-25 22:06 | 14.39367 | -17.30780 | 4225 ft | 263 kts | 91° |
| 2026-04-25 22:06 | 14.39239 | -17.28941 | 4087 ft | 251 kts | 90° |
| 2026-04-25 22:06 | 14.39117 | -17.27187 | 3952 ft | 239 kts | 91° |
| 2026-04-25 22:07 | 14.39000 | -17.25512 | 3821 ft | 229 kts | 90° |
| 2026-04-25 22:07 | 14.38925 | -17.24444 | 3748 ft | 222 kts | 90° |
| 2026-04-25 22:07 | 14.38781 | -17.22357 | 3490 ft | 215 kts | 90° |
| 2026-04-25 22:07 | 14.38677 | -17.20829 | 3248 ft | 212 kts | 90° |
| 2026-04-25 22:08 | 14.38572 | -17.19319 | 3035 ft | 210 kts | 89° |
| 2026-04-25 22:08 | 14.38469 | -17.17823 | 2989 ft | 209 kts | 89° |
| 2026-04-25 22:08 | 14.38365 | -17.16321 | 2978 ft | 210 kts | 89° |
| 2026-04-25 22:08 | 14.38261 | -17.14820 | 2982 ft | 211 kts | 90° |
| 2026-04-25 22:09 | 14.38155 | -17.13318 | 2979 ft | 209 kts | 90° |
| 2026-04-25 22:09 | 14.38050 | -17.11821 | 2975 ft | 209 kts | 89° |
| 2026-04-25 22:09 | 14.37965 | -17.10325 | 2973 ft | 209 kts | 87° |
| 2026-04-25 22:09 | 14.38165 | -17.08867 | 2977 ft | 204 kts | 68° |
| 2026-04-25 22:10 | 14.38914 | -17.07669 | 2984 ft | 197 kts | 38° |
| 2026-04-25 22:10 | 14.39757 | -17.07210 | 2985 ft | 192 kts | 11° |
| 2026-04-25 22:10 | 14.41015 | -17.07079 | 3006 ft | 171 kts | 1° |
| 2026-04-25 22:10 | 14.42131 | -17.07066 | 3010 ft | 149 kts | 0° |
| 2026-04-25 22:11 | 14.43095 | -17.07068 | 2952 ft | 132 kts | 0° |
| 2026-04-25 22:11 | 14.44013 | -17.07074 | 2725 ft | 129 kts | 1° |
| 2026-04-25 22:11 | 14.44854 | -17.07080 | 2532 ft | 125 kts | 1° |
| 2026-04-25 22:11 | 14.45700 | -17.07086 | 2387 ft | 114 kts | 1° |
| 2026-04-25 22:12 | 14.46466 | -17.07028 | 2156 ft | 110 kts | 8° |
| 2026-04-25 22:12 | 14.47177 | -17.06976 | 2052 ft | 93 kts | 2° |
| 2026-04-25 22:12 | 14.47956 | -17.06977 | 2195 ft | 128 kts | 0° |
| 2026-04-25 22:12 | 14.48531 | -17.06991 | 2140 ft | 119 kts | 1° |
| 2026-04-25 22:13 | 14.49582 | -17.07013 | 1914 ft | 110 kts | 1° |
| 2026-04-25 22:13 | 14.50464 | -17.07046 | 2020 ft | 140 kts | 358° |
| 2026-04-25 22:13 | 14.51453 | -17.07084 | 1839 ft | 145 kts | 359° |
| 2026-04-25 22:13 | 14.52473 | -17.07115 | 1760 ft | 148 kts | 1° |
| 2026-04-25 22:14 | 14.53498 | -17.07136 | 1705 ft | 148 kts | 1° |
| 2026-04-25 22:14 | 14.54534 | -17.07152 | 1689 ft | 149 kts | 0° |
| 2026-04-25 22:14 | 14.55559 | -17.07166 | 1691 ft | 146 kts | 0° |
| 2026-04-25 22:14 | 14.56571 | -17.07126 | 1698 ft | 146 kts | 6° |
| 2026-04-25 22:15 | 14.57590 | -17.07131 | 1694 ft | 147 kts | 358° |
| 2026-04-25 22:15 | 14.58620 | -17.07148 | 1627 ft | 149 kts | 1° |
| 2026-04-25 22:15 | 14.59653 | -17.07158 | 1431 ft | 147 kts | 360° |
| 2026-04-25 22:16 | 14.61658 | -17.07188 | 1187 ft | 139 kts | 359° |
| 2026-04-25 22:16 | 14.62630 | -17.07236 | 977 ft | 139 kts | 355° |
| 2026-04-25 22:16 | 14.63591 | -17.07268 | 825 ft | 138 kts | 358° |
| 2026-04-25 22:16 | 14.64550 | -17.07268 | 652 ft | 138 kts | 1° |
| 2026-04-25 22:17 | 14.65504 | -17.07278 | 418 ft | 136 kts | 358° |
| 2026-04-25 22:17 | 14.66437 | -17.07270 | 303 ft | 132 kts | 359° |
| 2026-04-25 22:17 | 14.67187 | -17.07280 | 302 ft | 62 kts | 360° |
| 2026-04-25 22:17 | 14.67437 | -17.07282 | 302 ft | 31 kts | 359° |
| 2026-04-25 22:18 | 14.67639 | -17.07268 | 303 ft | 26 kts | 19° |
| 2026-04-25 22:18 | 14.67805 | -17.07198 | 303 ft | 25 kts | 22° |
| 2026-04-25 22:18 | 14.67929 | -17.07111 | 301 ft | 19 kts | 36° |
| 2026-04-25 22:18 | 14.67939 | -17.07104 | 303 ft | 0 kts | 36° |
| 2026-04-25 22:19 | 14.67940 | -17.07103 | 303 ft | 2 kts | 37° |
| 2026-04-25 22:19 | 14.67993 | -17.07083 | 302 ft | 12 kts | 1° |
| 2026-04-25 22:19 | 14.68046 | -17.07036 | 303 ft | 10 kts | 85° |
| 2026-04-25 22:19 | 14.68046 | -17.07023 | 302 ft | 0 kts | 90° |
| 2026-04-25 22:20 | 14.68046 | -17.07018 | 301 ft | 6 kts | 90° |
| 2026-04-25 22:20 | 14.68029 | -17.06919 | 302 ft | 18 kts | 97° |
| 2026-04-25 22:21 | 14.68028 | -17.06902 | 302 ft | 0 kts | 94° |